<?xml version="1.0" encoding="UTF-8" standalone="no" ?>
<gpx xmlns="http://www.topografix.com/GPX/1/1" xmlns:xsi="http://www.w3.org/2001/XMLSchema-instance" xsi:schemaLocation="http://www.topografix.com/GPX/1/1 http://www.topografix.com/GPX/1/1/gpx.xsd" version="1.1" creator="VisuGPX - https://www.visugpx.com">
  <metadata>
    <name>Creuzier-le-vieux 29 12 17</name>
    <desc><![CDATA[Sortie sous averse de neige ,vent et pluie terrain gras quelques branches à terre mais ça passe partout]]></desc>
  </metadata>
  <wpt lat="46.17025" lon="3.43042">
    <ele>310.55</ele>
    <name><![CDATA[0000001]]></name>
    <type><![CDATA[Point de départ]]></type>
  </wpt>
  <wpt lat="46.17048" lon="3.43108">
    <ele>313.55</ele>
    <name><![CDATA[0000002]]></name>
    <desc><![CDATA[<p><br /><h3>Nom: Segment: 1</h3><br />Heure de départ: 12/29/2017 10:06<br/>Heure d'arrivée: 12/29/2017 12:08<br/>Distance: 21,1km (02:01)<br/>Temps déplacement: 01:58<br/>Vitesse moyenne: 10,43 km/h<br/>Vitesse moyenne mouv.: 10,61 km/h<br/>Vitesse Max.: 20 km/h<br/>Altitude minimale: 281 m<br/>Altitude maximale: 406 m<br/>Vitesse de montée: 738,4 m/h<br/>Vitesse de descente: -730,9 m/h<br/>Gain d'altitude: 733 m<br/>Perte d'altitude: -730 m<br/>Temps de montée: 00:59<br/>Temps de descente: 00:59<br/></p>]]></desc>
    <type><![CDATA[Point d'arrivée]]></type>
  </wpt>
  <trk>
    <name><![CDATA[2017-12-29 10:05]]></name>
    <desc><![CDATA[<p>Heure de départ: 12/29/2017 10:06<br/>Heure d'arrivée: 12/29/2017 12:08<br/>Distance: 21,1 km (02:01)<br/>Temps déplacement: 01:58<br/>Vitesse moyenne: 10,43 km/h<br/>Vitesse moyenne mouv.: 10,66 km/h<br/>Vitesse Max.: 20 km/h<br/>Altitude minimale: 281 m<br/>Altitude maximale: 406 m<br/>Vitesse de montée: 578,1 m/h<br/>Vitesse de descente: -648,3 m/h<br/>Gain d'altitude: 606 m<br/>Perte d'altitude: -599 m<br/>Temps de montée: 01:02<br/>Temps de descente: 00:55<br/></p><hr align="center" width="480" style="height: 2px; width: 517px"/>]]></desc>
    <trkseg>
      <trkpt lat="46.17025" lon="3.43042">
        <ele>310.55</ele>
        <time>2017-12-29T09:06:37Z</time>
      </trkpt>
      <trkpt lat="46.17007" lon="3.43027">
        <ele>307.04</ele>
        <time>2017-12-29T09:06:48Z</time>
      </trkpt>
      <trkpt lat="46.17021" lon="3.42996">
        <ele>304.28</ele>
        <time>2017-12-29T09:06:55Z</time>
      </trkpt>
      <trkpt lat="46.17013" lon="3.42966">
        <ele>307.08</ele>
        <time>2017-12-29T09:07:06Z</time>
      </trkpt>
      <trkpt lat="46.17012" lon="3.42938">
        <ele>309.24</ele>
        <time>2017-12-29T09:07:18Z</time>
      </trkpt>
      <trkpt lat="46.17001" lon="3.42916">
        <ele>302.55</ele>
        <time>2017-12-29T09:07:29Z</time>
      </trkpt>
      <trkpt lat="46.17011" lon="3.42889">
        <ele>304.36</ele>
        <time>2017-12-29T09:07:39Z</time>
      </trkpt>
      <trkpt lat="46.17031" lon="3.4288">
        <ele>304.61</ele>
        <time>2017-12-29T09:07:43Z</time>
      </trkpt>
      <trkpt lat="46.17052" lon="3.42873">
        <ele>302.87</ele>
        <time>2017-12-29T09:07:49Z</time>
      </trkpt>
      <trkpt lat="46.17071" lon="3.42866">
        <ele>300.16</ele>
        <time>2017-12-29T09:07:55Z</time>
      </trkpt>
      <trkpt lat="46.17091" lon="3.42878">
        <ele>295.63</ele>
        <time>2017-12-29T09:08:04Z</time>
      </trkpt>
      <trkpt lat="46.17112" lon="3.42884">
        <ele>296.46</ele>
        <time>2017-12-29T09:08:10Z</time>
      </trkpt>
      <trkpt lat="46.17131" lon="3.42894">
        <ele>297.52</ele>
        <time>2017-12-29T09:08:16Z</time>
      </trkpt>
      <trkpt lat="46.17149" lon="3.42899">
        <ele>300.55</ele>
        <time>2017-12-29T09:08:22Z</time>
      </trkpt>
      <trkpt lat="46.17171" lon="3.4289">
        <ele>302.82</ele>
        <time>2017-12-29T09:08:28Z</time>
      </trkpt>
      <trkpt lat="46.1719" lon="3.42885">
        <ele>297.87</ele>
        <time>2017-12-29T09:08:36Z</time>
      </trkpt>
      <trkpt lat="46.17211" lon="3.42883">
        <ele>296.92</ele>
        <time>2017-12-29T09:08:43Z</time>
      </trkpt>
      <trkpt lat="46.17229" lon="3.42883">
        <ele>296.57</ele>
        <time>2017-12-29T09:08:49Z</time>
      </trkpt>
      <trkpt lat="46.17249" lon="3.42885">
        <ele>298.44</ele>
        <time>2017-12-29T09:08:56Z</time>
      </trkpt>
      <trkpt lat="46.17267" lon="3.42887">
        <ele>299.57</ele>
        <time>2017-12-29T09:09:02Z</time>
      </trkpt>
      <trkpt lat="46.17286" lon="3.42893">
        <ele>299.06</ele>
        <time>2017-12-29T09:09:10Z</time>
      </trkpt>
      <trkpt lat="46.17305" lon="3.42903">
        <ele>301.41</ele>
        <time>2017-12-29T09:09:17Z</time>
      </trkpt>
      <trkpt lat="46.17323" lon="3.42908">
        <ele>304.45</ele>
        <time>2017-12-29T09:09:24Z</time>
      </trkpt>
      <trkpt lat="46.17341" lon="3.42919">
        <ele>306.54</ele>
        <time>2017-12-29T09:09:30Z</time>
      </trkpt>
      <trkpt lat="46.17361" lon="3.42922">
        <ele>301.94</ele>
        <time>2017-12-29T09:09:36Z</time>
      </trkpt>
      <trkpt lat="46.17379" lon="3.42934">
        <ele>301.19</ele>
        <time>2017-12-29T09:09:42Z</time>
      </trkpt>
      <trkpt lat="46.17394" lon="3.42949">
        <ele>299.21</ele>
        <time>2017-12-29T09:09:49Z</time>
      </trkpt>
      <trkpt lat="46.17412" lon="3.42963">
        <ele>296.09</ele>
        <time>2017-12-29T09:09:56Z</time>
      </trkpt>
      <trkpt lat="46.1743" lon="3.42975">
        <ele>299.36</ele>
        <time>2017-12-29T09:10:04Z</time>
      </trkpt>
      <trkpt lat="46.17448" lon="3.42986">
        <ele>300.58</ele>
        <time>2017-12-29T09:10:11Z</time>
      </trkpt>
      <trkpt lat="46.17465" lon="3.43">
        <ele>300.55</ele>
        <time>2017-12-29T09:10:20Z</time>
      </trkpt>
      <trkpt lat="46.17481" lon="3.43014">
        <ele>298.65</ele>
        <time>2017-12-29T09:10:28Z</time>
      </trkpt>
      <trkpt lat="46.17497" lon="3.4303">
        <ele>296.02</ele>
        <time>2017-12-29T09:10:37Z</time>
      </trkpt>
      <trkpt lat="46.17513" lon="3.43045">
        <ele>298.49</ele>
        <time>2017-12-29T09:10:42Z</time>
      </trkpt>
      <trkpt lat="46.17531" lon="3.4306">
        <ele>302.31</ele>
        <time>2017-12-29T09:10:48Z</time>
      </trkpt>
      <trkpt lat="46.17548" lon="3.43077">
        <ele>308.31</ele>
        <time>2017-12-29T09:10:56Z</time>
      </trkpt>
      <trkpt lat="46.17564" lon="3.43094">
        <ele>307.62</ele>
        <time>2017-12-29T09:11:03Z</time>
      </trkpt>
      <trkpt lat="46.17579" lon="3.43112">
        <ele>306.37</ele>
        <time>2017-12-29T09:11:10Z</time>
      </trkpt>
      <trkpt lat="46.17594" lon="3.43128">
        <ele>311.86</ele>
        <time>2017-12-29T09:11:17Z</time>
      </trkpt>
      <trkpt lat="46.17611" lon="3.43144">
        <ele>314.25</ele>
        <time>2017-12-29T09:11:24Z</time>
      </trkpt>
      <trkpt lat="46.17628" lon="3.43158">
        <ele>316.32</ele>
        <time>2017-12-29T09:11:31Z</time>
      </trkpt>
      <trkpt lat="46.17646" lon="3.43166">
        <ele>314.92</ele>
        <time>2017-12-29T09:11:37Z</time>
      </trkpt>
      <trkpt lat="46.17661" lon="3.43179">
        <ele>316.45</ele>
        <time>2017-12-29T09:11:44Z</time>
      </trkpt>
      <trkpt lat="46.17672" lon="3.432">
        <ele>317.56</ele>
        <time>2017-12-29T09:11:53Z</time>
      </trkpt>
      <trkpt lat="46.17682" lon="3.43178">
        <ele>317.83</ele>
        <time>2017-12-29T09:12:01Z</time>
      </trkpt>
      <trkpt lat="46.17693" lon="3.43156">
        <ele>318.53</ele>
        <time>2017-12-29T09:12:09Z</time>
      </trkpt>
      <trkpt lat="46.17702" lon="3.43128">
        <ele>319.44</ele>
        <time>2017-12-29T09:12:16Z</time>
      </trkpt>
      <trkpt lat="46.17713" lon="3.43104">
        <ele>323.24</ele>
        <time>2017-12-29T09:12:25Z</time>
      </trkpt>
      <trkpt lat="46.17723" lon="3.4308">
        <ele>326.45</ele>
        <time>2017-12-29T09:12:32Z</time>
      </trkpt>
      <trkpt lat="46.17733" lon="3.43059">
        <ele>328.23</ele>
        <time>2017-12-29T09:12:39Z</time>
      </trkpt>
      <trkpt lat="46.17741" lon="3.43035">
        <ele>329.46</ele>
        <time>2017-12-29T09:12:45Z</time>
      </trkpt>
      <trkpt lat="46.17728" lon="3.43014">
        <ele>328.56</ele>
        <time>2017-12-29T09:12:53Z</time>
      </trkpt>
      <trkpt lat="46.17712" lon="3.42992">
        <ele>328.9</ele>
        <time>2017-12-29T09:13:01Z</time>
      </trkpt>
      <trkpt lat="46.17698" lon="3.42977">
        <ele>325.88</ele>
        <time>2017-12-29T09:13:07Z</time>
      </trkpt>
      <trkpt lat="46.17685" lon="3.42954">
        <ele>322.65</ele>
        <time>2017-12-29T09:13:13Z</time>
      </trkpt>
      <trkpt lat="46.17669" lon="3.42939">
        <ele>323.8</ele>
        <time>2017-12-29T09:13:21Z</time>
      </trkpt>
      <trkpt lat="46.17654" lon="3.4292">
        <ele>318.2</ele>
        <time>2017-12-29T09:13:27Z</time>
      </trkpt>
      <trkpt lat="46.17635" lon="3.42909">
        <ele>318.34</ele>
        <time>2017-12-29T09:13:35Z</time>
      </trkpt>
      <trkpt lat="46.17617" lon="3.429">
        <ele>315.89</ele>
        <time>2017-12-29T09:13:41Z</time>
      </trkpt>
      <trkpt lat="46.17596" lon="3.42894">
        <ele>312.86</ele>
        <time>2017-12-29T09:13:47Z</time>
      </trkpt>
      <trkpt lat="46.17577" lon="3.42884">
        <ele>311.56</ele>
        <time>2017-12-29T09:13:54Z</time>
      </trkpt>
      <trkpt lat="46.17561" lon="3.4287">
        <ele>309.58</ele>
        <time>2017-12-29T09:13:59Z</time>
      </trkpt>
      <trkpt lat="46.17544" lon="3.42854">
        <ele>312.66</ele>
        <time>2017-12-29T09:14:06Z</time>
      </trkpt>
      <trkpt lat="46.17527" lon="3.4284">
        <ele>311.15</ele>
        <time>2017-12-29T09:14:13Z</time>
      </trkpt>
      <trkpt lat="46.17511" lon="3.42821">
        <ele>312.28</ele>
        <time>2017-12-29T09:14:21Z</time>
      </trkpt>
      <trkpt lat="46.17493" lon="3.42807">
        <ele>309.88</ele>
        <time>2017-12-29T09:14:27Z</time>
      </trkpt>
      <trkpt lat="46.17478" lon="3.42789">
        <ele>312.23</ele>
        <time>2017-12-29T09:14:34Z</time>
      </trkpt>
      <trkpt lat="46.17462" lon="3.42776">
        <ele>310.48</ele>
        <time>2017-12-29T09:14:41Z</time>
      </trkpt>
      <trkpt lat="46.17462" lon="3.42748">
        <ele>309.26</ele>
        <time>2017-12-29T09:14:49Z</time>
      </trkpt>
      <trkpt lat="46.1747" lon="3.42722">
        <ele>309.84</ele>
        <time>2017-12-29T09:14:56Z</time>
      </trkpt>
      <trkpt lat="46.17479" lon="3.42698">
        <ele>313.15</ele>
        <time>2017-12-29T09:15:04Z</time>
      </trkpt>
      <trkpt lat="46.17488" lon="3.42674">
        <ele>315.25</ele>
        <time>2017-12-29T09:15:11Z</time>
      </trkpt>
      <trkpt lat="46.17502" lon="3.42653">
        <ele>316.54</ele>
        <time>2017-12-29T09:15:19Z</time>
      </trkpt>
      <trkpt lat="46.17513" lon="3.42629">
        <ele>318.25</ele>
        <time>2017-12-29T09:15:28Z</time>
      </trkpt>
      <trkpt lat="46.17522" lon="3.42603">
        <ele>321.22</ele>
        <time>2017-12-29T09:15:36Z</time>
      </trkpt>
      <trkpt lat="46.17531" lon="3.4258">
        <ele>323.17</ele>
        <time>2017-12-29T09:15:44Z</time>
      </trkpt>
      <trkpt lat="46.17542" lon="3.42556">
        <ele>326.54</ele>
        <time>2017-12-29T09:15:53Z</time>
      </trkpt>
      <trkpt lat="46.17551" lon="3.42532">
        <ele>329.54</ele>
        <time>2017-12-29T09:16:02Z</time>
      </trkpt>
      <trkpt lat="46.17562" lon="3.42507">
        <ele>332.76</ele>
        <time>2017-12-29T09:16:10Z</time>
      </trkpt>
      <trkpt lat="46.17572" lon="3.42485">
        <ele>333.53</ele>
        <time>2017-12-29T09:16:17Z</time>
      </trkpt>
      <trkpt lat="46.17583" lon="3.42463">
        <ele>333.32</ele>
        <time>2017-12-29T09:16:26Z</time>
      </trkpt>
      <trkpt lat="46.17596" lon="3.42443">
        <ele>331.35</ele>
        <time>2017-12-29T09:16:34Z</time>
      </trkpt>
      <trkpt lat="46.17611" lon="3.42427">
        <ele>331.55</ele>
        <time>2017-12-29T09:16:41Z</time>
      </trkpt>
      <trkpt lat="46.17629" lon="3.42421">
        <ele>334.41</ele>
        <time>2017-12-29T09:16:49Z</time>
      </trkpt>
      <trkpt lat="46.17646" lon="3.42425">
        <ele>326.52</ele>
        <time>2017-12-29T09:16:56Z</time>
      </trkpt>
      <trkpt lat="46.17664" lon="3.42442">
        <ele>326.74</ele>
        <time>2017-12-29T09:17:05Z</time>
      </trkpt>
      <trkpt lat="46.17684" lon="3.42451">
        <ele>327.55</ele>
        <time>2017-12-29T09:17:13Z</time>
      </trkpt>
      <trkpt lat="46.17703" lon="3.4246">
        <ele>325.65</ele>
        <time>2017-12-29T09:17:19Z</time>
      </trkpt>
      <trkpt lat="46.17722" lon="3.42464">
        <ele>327.59</ele>
        <time>2017-12-29T09:17:24Z</time>
      </trkpt>
      <trkpt lat="46.17741" lon="3.42468">
        <ele>325.37</ele>
        <time>2017-12-29T09:17:32Z</time>
      </trkpt>
      <trkpt lat="46.1776" lon="3.42471">
        <ele>329.93</ele>
        <time>2017-12-29T09:17:40Z</time>
      </trkpt>
      <trkpt lat="46.17784" lon="3.42474">
        <ele>328.61</ele>
        <time>2017-12-29T09:17:47Z</time>
      </trkpt>
      <trkpt lat="46.17804" lon="3.4248">
        <ele>325.5</ele>
        <time>2017-12-29T09:17:56Z</time>
      </trkpt>
      <trkpt lat="46.17823" lon="3.42489">
        <ele>320.39</ele>
        <time>2017-12-29T09:18:03Z</time>
      </trkpt>
      <trkpt lat="46.17843" lon="3.42495">
        <ele>322.52</ele>
        <time>2017-12-29T09:18:08Z</time>
      </trkpt>
      <trkpt lat="46.17865" lon="3.4251">
        <ele>319.26</ele>
        <time>2017-12-29T09:18:15Z</time>
      </trkpt>
      <trkpt lat="46.17885" lon="3.42509">
        <ele>320.5</ele>
        <time>2017-12-29T09:18:22Z</time>
      </trkpt>
      <trkpt lat="46.17908" lon="3.42513">
        <ele>319.51</ele>
        <time>2017-12-29T09:18:29Z</time>
      </trkpt>
      <trkpt lat="46.17927" lon="3.42511">
        <ele>319.12</ele>
        <time>2017-12-29T09:18:35Z</time>
      </trkpt>
      <trkpt lat="46.17947" lon="3.42499">
        <ele>319.79</ele>
        <time>2017-12-29T09:18:42Z</time>
      </trkpt>
      <trkpt lat="46.17967" lon="3.4249">
        <ele>315.16</ele>
        <time>2017-12-29T09:18:49Z</time>
      </trkpt>
      <trkpt lat="46.17986" lon="3.42496">
        <ele>314.51</ele>
        <time>2017-12-29T09:18:56Z</time>
      </trkpt>
      <trkpt lat="46.18006" lon="3.42506">
        <ele>311.88</ele>
        <time>2017-12-29T09:19:04Z</time>
      </trkpt>
      <trkpt lat="46.18028" lon="3.42514">
        <ele>312.36</ele>
        <time>2017-12-29T09:19:11Z</time>
      </trkpt>
      <trkpt lat="46.18047" lon="3.42522">
        <ele>311.56</ele>
        <time>2017-12-29T09:19:17Z</time>
      </trkpt>
      <trkpt lat="46.18065" lon="3.42531">
        <ele>317.45</ele>
        <time>2017-12-29T09:19:24Z</time>
      </trkpt>
      <trkpt lat="46.18082" lon="3.42539">
        <ele>318.9</ele>
        <time>2017-12-29T09:19:31Z</time>
      </trkpt>
      <trkpt lat="46.18101" lon="3.42541">
        <ele>319.78</ele>
        <time>2017-12-29T09:19:37Z</time>
      </trkpt>
      <trkpt lat="46.18121" lon="3.42533">
        <ele>319.76</ele>
        <time>2017-12-29T09:19:44Z</time>
      </trkpt>
      <trkpt lat="46.18139" lon="3.42522">
        <ele>313.73</ele>
        <time>2017-12-29T09:19:51Z</time>
      </trkpt>
      <trkpt lat="46.1815" lon="3.42497">
        <ele>304.95</ele>
        <time>2017-12-29T09:19:58Z</time>
      </trkpt>
      <trkpt lat="46.18157" lon="3.42472">
        <ele>304.55</ele>
        <time>2017-12-29T09:20:04Z</time>
      </trkpt>
      <trkpt lat="46.18166" lon="3.42445">
        <ele>301.86</ele>
        <time>2017-12-29T09:20:10Z</time>
      </trkpt>
      <trkpt lat="46.18174" lon="3.4242">
        <ele>300.58</ele>
        <time>2017-12-29T09:20:16Z</time>
      </trkpt>
      <trkpt lat="46.18182" lon="3.42392">
        <ele>300.85</ele>
        <time>2017-12-29T09:20:23Z</time>
      </trkpt>
      <trkpt lat="46.1819" lon="3.42366">
        <ele>299.56</ele>
        <time>2017-12-29T09:20:29Z</time>
      </trkpt>
      <trkpt lat="46.18197" lon="3.42341">
        <ele>297.58</ele>
        <time>2017-12-29T09:20:35Z</time>
      </trkpt>
      <trkpt lat="46.18205" lon="3.42315">
        <ele>295.86</ele>
        <time>2017-12-29T09:20:42Z</time>
      </trkpt>
      <trkpt lat="46.18212" lon="3.42289">
        <ele>295.55</ele>
        <time>2017-12-29T09:20:48Z</time>
      </trkpt>
      <trkpt lat="46.18229" lon="3.42275">
        <ele>293.26</ele>
        <time>2017-12-29T09:20:56Z</time>
      </trkpt>
      <trkpt lat="46.18246" lon="3.42284">
        <ele>291.59</ele>
        <time>2017-12-29T09:21:02Z</time>
      </trkpt>
      <trkpt lat="46.18264" lon="3.42299">
        <ele>292.23</ele>
        <time>2017-12-29T09:21:09Z</time>
      </trkpt>
      <trkpt lat="46.1828" lon="3.42309">
        <ele>290.92</ele>
        <time>2017-12-29T09:21:15Z</time>
      </trkpt>
      <trkpt lat="46.18299" lon="3.42324">
        <ele>288.59</ele>
        <time>2017-12-29T09:21:22Z</time>
      </trkpt>
      <trkpt lat="46.18317" lon="3.4234">
        <ele>289.19</ele>
        <time>2017-12-29T09:21:29Z</time>
      </trkpt>
      <trkpt lat="46.18334" lon="3.42353">
        <ele>286.86</ele>
        <time>2017-12-29T09:21:36Z</time>
      </trkpt>
      <trkpt lat="46.18351" lon="3.42366">
        <ele>286.26</ele>
        <time>2017-12-29T09:21:44Z</time>
      </trkpt>
      <trkpt lat="46.18368" lon="3.42375">
        <ele>283.98</ele>
        <time>2017-12-29T09:21:50Z</time>
      </trkpt>
      <trkpt lat="46.18385" lon="3.42389">
        <ele>281.99</ele>
        <time>2017-12-29T09:21:57Z</time>
      </trkpt>
      <trkpt lat="46.18404" lon="3.42399">
        <ele>286.45</ele>
        <time>2017-12-29T09:22:04Z</time>
      </trkpt>
      <trkpt lat="46.18421" lon="3.42411">
        <ele>291.45</ele>
        <time>2017-12-29T09:22:12Z</time>
      </trkpt>
      <trkpt lat="46.18441" lon="3.42423">
        <ele>290.07</ele>
        <time>2017-12-29T09:22:18Z</time>
      </trkpt>
      <trkpt lat="46.18457" lon="3.42437">
        <ele>290.56</ele>
        <time>2017-12-29T09:22:24Z</time>
      </trkpt>
      <trkpt lat="46.18474" lon="3.42449">
        <ele>292.44</ele>
        <time>2017-12-29T09:22:31Z</time>
      </trkpt>
      <trkpt lat="46.1849" lon="3.42463">
        <ele>290.67</ele>
        <time>2017-12-29T09:22:38Z</time>
      </trkpt>
      <trkpt lat="46.18508" lon="3.42477">
        <ele>289.55</ele>
        <time>2017-12-29T09:22:45Z</time>
      </trkpt>
      <trkpt lat="46.18525" lon="3.42495">
        <ele>290.78</ele>
        <time>2017-12-29T09:22:52Z</time>
      </trkpt>
      <trkpt lat="46.18541" lon="3.42513">
        <ele>290.56</ele>
        <time>2017-12-29T09:22:59Z</time>
      </trkpt>
      <trkpt lat="46.18553" lon="3.42534">
        <ele>290.34</ele>
        <time>2017-12-29T09:23:07Z</time>
      </trkpt>
      <trkpt lat="46.18567" lon="3.42556">
        <ele>292.38</ele>
        <time>2017-12-29T09:23:14Z</time>
      </trkpt>
      <trkpt lat="46.18575" lon="3.42579">
        <ele>294.52</ele>
        <time>2017-12-29T09:23:21Z</time>
      </trkpt>
      <trkpt lat="46.18582" lon="3.42604">
        <ele>294.74</ele>
        <time>2017-12-29T09:23:28Z</time>
      </trkpt>
      <trkpt lat="46.18589" lon="3.42631">
        <ele>296.28</ele>
        <time>2017-12-29T09:23:35Z</time>
      </trkpt>
      <trkpt lat="46.18596" lon="3.42657">
        <ele>297.95</ele>
        <time>2017-12-29T09:23:42Z</time>
      </trkpt>
      <trkpt lat="46.18605" lon="3.4268">
        <ele>301.66</ele>
        <time>2017-12-29T09:23:50Z</time>
      </trkpt>
      <trkpt lat="46.18616" lon="3.42705">
        <ele>302.65</ele>
        <time>2017-12-29T09:23:59Z</time>
      </trkpt>
      <trkpt lat="46.18625" lon="3.42727">
        <ele>303.18</ele>
        <time>2017-12-29T09:24:07Z</time>
      </trkpt>
      <trkpt lat="46.18634" lon="3.4275">
        <ele>299.97</ele>
        <time>2017-12-29T09:24:13Z</time>
      </trkpt>
      <trkpt lat="46.18643" lon="3.42777">
        <ele>303.15</ele>
        <time>2017-12-29T09:24:20Z</time>
      </trkpt>
      <trkpt lat="46.1865" lon="3.42803">
        <ele>306.48</ele>
        <time>2017-12-29T09:24:26Z</time>
      </trkpt>
      <trkpt lat="46.18646" lon="3.4283">
        <ele>309.94</ele>
        <time>2017-12-29T09:24:33Z</time>
      </trkpt>
      <trkpt lat="46.18637" lon="3.42855">
        <ele>312.39</ele>
        <time>2017-12-29T09:24:43Z</time>
      </trkpt>
      <trkpt lat="46.18631" lon="3.42883">
        <ele>310.74</ele>
        <time>2017-12-29T09:24:51Z</time>
      </trkpt>
      <trkpt lat="46.18625" lon="3.42913">
        <ele>316.92</ele>
        <time>2017-12-29T09:25:00Z</time>
      </trkpt>
      <trkpt lat="46.18618" lon="3.42938">
        <ele>321.47</ele>
        <time>2017-12-29T09:25:10Z</time>
      </trkpt>
      <trkpt lat="46.18616" lon="3.42966">
        <ele>321.1</ele>
        <time>2017-12-29T09:25:18Z</time>
      </trkpt>
      <trkpt lat="46.1861" lon="3.42992">
        <ele>320.47</ele>
        <time>2017-12-29T09:25:25Z</time>
      </trkpt>
      <trkpt lat="46.18605" lon="3.43019">
        <ele>320.55</ele>
        <time>2017-12-29T09:25:32Z</time>
      </trkpt>
      <trkpt lat="46.18593" lon="3.43041">
        <ele>318.25</ele>
        <time>2017-12-29T09:25:41Z</time>
      </trkpt>
      <trkpt lat="46.18573" lon="3.43041">
        <ele>322.37</ele>
        <time>2017-12-29T09:25:50Z</time>
      </trkpt>
      <trkpt lat="46.18554" lon="3.43037">
        <ele>328.06</ele>
        <time>2017-12-29T09:25:58Z</time>
      </trkpt>
      <trkpt lat="46.18535" lon="3.43034">
        <ele>324.78</ele>
        <time>2017-12-29T09:26:05Z</time>
      </trkpt>
      <trkpt lat="46.18516" lon="3.43029">
        <ele>322.12</ele>
        <time>2017-12-29T09:26:12Z</time>
      </trkpt>
      <trkpt lat="46.18497" lon="3.43029">
        <ele>323.66</ele>
        <time>2017-12-29T09:26:19Z</time>
      </trkpt>
      <trkpt lat="46.18477" lon="3.43027">
        <ele>323.92</ele>
        <time>2017-12-29T09:26:27Z</time>
      </trkpt>
      <trkpt lat="46.18459" lon="3.43023">
        <ele>324.52</ele>
        <time>2017-12-29T09:26:36Z</time>
      </trkpt>
      <trkpt lat="46.1844" lon="3.43026">
        <ele>327.01</ele>
        <time>2017-12-29T09:26:43Z</time>
      </trkpt>
      <trkpt lat="46.18421" lon="3.43029">
        <ele>329.58</ele>
        <time>2017-12-29T09:26:50Z</time>
      </trkpt>
      <trkpt lat="46.18402" lon="3.43032">
        <ele>328.39</ele>
        <time>2017-12-29T09:26:57Z</time>
      </trkpt>
      <trkpt lat="46.18382" lon="3.43031">
        <ele>330.43</ele>
        <time>2017-12-29T09:27:05Z</time>
      </trkpt>
      <trkpt lat="46.18364" lon="3.43027">
        <ele>334.46</ele>
        <time>2017-12-29T09:27:12Z</time>
      </trkpt>
      <trkpt lat="46.18344" lon="3.43024">
        <ele>334.93</ele>
        <time>2017-12-29T09:27:19Z</time>
      </trkpt>
      <trkpt lat="46.18325" lon="3.4302">
        <ele>336.28</ele>
        <time>2017-12-29T09:27:27Z</time>
      </trkpt>
      <trkpt lat="46.18306" lon="3.43016">
        <ele>339.36</ele>
        <time>2017-12-29T09:27:35Z</time>
      </trkpt>
      <trkpt lat="46.18288" lon="3.43012">
        <ele>341.71</ele>
        <time>2017-12-29T09:27:42Z</time>
      </trkpt>
      <trkpt lat="46.18268" lon="3.43009">
        <ele>340.64</ele>
        <time>2017-12-29T09:27:49Z</time>
      </trkpt>
      <trkpt lat="46.1825" lon="3.43004">
        <ele>340.26</ele>
        <time>2017-12-29T09:27:56Z</time>
      </trkpt>
      <trkpt lat="46.1823" lon="3.43">
        <ele>341.49</ele>
        <time>2017-12-29T09:28:03Z</time>
      </trkpt>
      <trkpt lat="46.18211" lon="3.42994">
        <ele>339.24</ele>
        <time>2017-12-29T09:28:10Z</time>
      </trkpt>
      <trkpt lat="46.18193" lon="3.4299">
        <ele>341.75</ele>
        <time>2017-12-29T09:28:16Z</time>
      </trkpt>
      <trkpt lat="46.18174" lon="3.42986">
        <ele>341.48</ele>
        <time>2017-12-29T09:28:23Z</time>
      </trkpt>
      <trkpt lat="46.18154" lon="3.42982">
        <ele>342.25</ele>
        <time>2017-12-29T09:28:30Z</time>
      </trkpt>
      <trkpt lat="46.18134" lon="3.42974">
        <ele>341.87</ele>
        <time>2017-12-29T09:28:38Z</time>
      </trkpt>
      <trkpt lat="46.18117" lon="3.42982">
        <ele>344.58</ele>
        <time>2017-12-29T09:28:45Z</time>
      </trkpt>
      <trkpt lat="46.18108" lon="3.43005">
        <ele>350.15</ele>
        <time>2017-12-29T09:28:52Z</time>
      </trkpt>
      <trkpt lat="46.18103" lon="3.4303">
        <ele>350.31</ele>
        <time>2017-12-29T09:28:58Z</time>
      </trkpt>
      <trkpt lat="46.18097" lon="3.43057">
        <ele>349.92</ele>
        <time>2017-12-29T09:29:04Z</time>
      </trkpt>
      <trkpt lat="46.18094" lon="3.43086">
        <ele>346.32</ele>
        <time>2017-12-29T09:29:11Z</time>
      </trkpt>
      <trkpt lat="46.181" lon="3.43113">
        <ele>345.5</ele>
        <time>2017-12-29T09:29:18Z</time>
      </trkpt>
      <trkpt lat="46.18118" lon="3.43122">
        <ele>346.75</ele>
        <time>2017-12-29T09:29:23Z</time>
      </trkpt>
      <trkpt lat="46.18137" lon="3.43131">
        <ele>344.65</ele>
        <time>2017-12-29T09:29:29Z</time>
      </trkpt>
      <trkpt lat="46.18154" lon="3.43139">
        <ele>345.55</ele>
        <time>2017-12-29T09:29:35Z</time>
      </trkpt>
      <trkpt lat="46.18168" lon="3.43157">
        <ele>348.45</ele>
        <time>2017-12-29T09:29:42Z</time>
      </trkpt>
      <trkpt lat="46.18172" lon="3.43183">
        <ele>348.46</ele>
        <time>2017-12-29T09:29:49Z</time>
      </trkpt>
      <trkpt lat="46.18183" lon="3.43207">
        <ele>348.26</ele>
        <time>2017-12-29T09:29:57Z</time>
      </trkpt>
      <trkpt lat="46.18199" lon="3.43222">
        <ele>349.52</ele>
        <time>2017-12-29T09:30:03Z</time>
      </trkpt>
      <trkpt lat="46.1821" lon="3.43242">
        <ele>355.15</ele>
        <time>2017-12-29T09:30:11Z</time>
      </trkpt>
      <trkpt lat="46.18225" lon="3.43261">
        <ele>358.25</ele>
        <time>2017-12-29T09:30:19Z</time>
      </trkpt>
      <trkpt lat="46.1824" lon="3.43277">
        <ele>356.59</ele>
        <time>2017-12-29T09:30:28Z</time>
      </trkpt>
      <trkpt lat="46.18254" lon="3.43292">
        <ele>359.41</ele>
        <time>2017-12-29T09:30:34Z</time>
      </trkpt>
      <trkpt lat="46.18268" lon="3.4331">
        <ele>357.92</ele>
        <time>2017-12-29T09:30:40Z</time>
      </trkpt>
      <trkpt lat="46.18282" lon="3.43329">
        <ele>356.85</ele>
        <time>2017-12-29T09:30:47Z</time>
      </trkpt>
      <trkpt lat="46.18295" lon="3.43347">
        <ele>356.53</ele>
        <time>2017-12-29T09:30:53Z</time>
      </trkpt>
      <trkpt lat="46.18311" lon="3.43362">
        <ele>355.35</ele>
        <time>2017-12-29T09:30:59Z</time>
      </trkpt>
      <trkpt lat="46.18329" lon="3.43377">
        <ele>355.62</ele>
        <time>2017-12-29T09:31:06Z</time>
      </trkpt>
      <trkpt lat="46.18345" lon="3.43391">
        <ele>357.53</ele>
        <time>2017-12-29T09:31:13Z</time>
      </trkpt>
      <trkpt lat="46.1836" lon="3.43408">
        <ele>358.61</ele>
        <time>2017-12-29T09:31:20Z</time>
      </trkpt>
      <trkpt lat="46.18376" lon="3.43423">
        <ele>361.43</ele>
        <time>2017-12-29T09:31:27Z</time>
      </trkpt>
      <trkpt lat="46.18391" lon="3.43443">
        <ele>361.83</ele>
        <time>2017-12-29T09:31:34Z</time>
      </trkpt>
      <trkpt lat="46.18401" lon="3.43467">
        <ele>364.53</ele>
        <time>2017-12-29T09:31:41Z</time>
      </trkpt>
      <trkpt lat="46.18412" lon="3.43489">
        <ele>366.55</ele>
        <time>2017-12-29T09:31:49Z</time>
      </trkpt>
      <trkpt lat="46.18427" lon="3.4351">
        <ele>366.55</ele>
        <time>2017-12-29T09:31:57Z</time>
      </trkpt>
      <trkpt lat="46.18438" lon="3.43534">
        <ele>368.38</ele>
        <time>2017-12-29T09:32:07Z</time>
      </trkpt>
      <trkpt lat="46.1842" lon="3.43549">
        <ele>363.59</ele>
        <time>2017-12-29T09:32:16Z</time>
      </trkpt>
      <trkpt lat="46.18402" lon="3.43562">
        <ele>365.54</ele>
        <time>2017-12-29T09:32:22Z</time>
      </trkpt>
      <trkpt lat="46.18385" lon="3.43573">
        <ele>362.66</ele>
        <time>2017-12-29T09:32:28Z</time>
      </trkpt>
      <trkpt lat="46.18368" lon="3.43584">
        <ele>364.31</ele>
        <time>2017-12-29T09:32:35Z</time>
      </trkpt>
      <trkpt lat="46.18351" lon="3.43598">
        <ele>363.08</ele>
        <time>2017-12-29T09:32:42Z</time>
      </trkpt>
      <trkpt lat="46.18335" lon="3.43612">
        <ele>360.55</ele>
        <time>2017-12-29T09:33:04Z</time>
      </trkpt>
      <trkpt lat="46.18316" lon="3.43624">
        <ele>363.03</ele>
        <time>2017-12-29T09:33:11Z</time>
      </trkpt>
      <trkpt lat="46.18298" lon="3.4364">
        <ele>360.24</ele>
        <time>2017-12-29T09:33:18Z</time>
      </trkpt>
      <trkpt lat="46.18283" lon="3.43657">
        <ele>357.53</ele>
        <time>2017-12-29T09:33:24Z</time>
      </trkpt>
      <trkpt lat="46.18272" lon="3.43678">
        <ele>360.22</ele>
        <time>2017-12-29T09:33:30Z</time>
      </trkpt>
      <trkpt lat="46.18261" lon="3.43702">
        <ele>362.23</ele>
        <time>2017-12-29T09:33:37Z</time>
      </trkpt>
      <trkpt lat="46.18252" lon="3.43725">
        <ele>363.27</ele>
        <time>2017-12-29T09:33:43Z</time>
      </trkpt>
      <trkpt lat="46.18241" lon="3.4375">
        <ele>364.85</ele>
        <time>2017-12-29T09:33:50Z</time>
      </trkpt>
      <trkpt lat="46.18231" lon="3.43773">
        <ele>368.45</ele>
        <time>2017-12-29T09:33:57Z</time>
      </trkpt>
      <trkpt lat="46.18218" lon="3.43791">
        <ele>368.92</ele>
        <time>2017-12-29T09:34:04Z</time>
      </trkpt>
      <trkpt lat="46.18206" lon="3.43814">
        <ele>366.63</ele>
        <time>2017-12-29T09:34:11Z</time>
      </trkpt>
      <trkpt lat="46.18194" lon="3.43833">
        <ele>368.87</ele>
        <time>2017-12-29T09:34:20Z</time>
      </trkpt>
      <trkpt lat="46.18181" lon="3.43855">
        <ele>373.95</ele>
        <time>2017-12-29T09:34:28Z</time>
      </trkpt>
      <trkpt lat="46.18166" lon="3.43874">
        <ele>377.44</ele>
        <time>2017-12-29T09:34:35Z</time>
      </trkpt>
      <trkpt lat="46.18152" lon="3.4389">
        <ele>377.22</ele>
        <time>2017-12-29T09:34:43Z</time>
      </trkpt>
      <trkpt lat="46.18132" lon="3.43896">
        <ele>371.32</ele>
        <time>2017-12-29T09:34:49Z</time>
      </trkpt>
      <trkpt lat="46.18114" lon="3.43907">
        <ele>370.59</ele>
        <time>2017-12-29T09:34:55Z</time>
      </trkpt>
      <trkpt lat="46.18097" lon="3.43921">
        <ele>370.55</ele>
        <time>2017-12-29T09:35:01Z</time>
      </trkpt>
      <trkpt lat="46.18081" lon="3.43938">
        <ele>370.63</ele>
        <time>2017-12-29T09:35:07Z</time>
      </trkpt>
      <trkpt lat="46.18065" lon="3.43951">
        <ele>367.74</ele>
        <time>2017-12-29T09:35:13Z</time>
      </trkpt>
      <trkpt lat="46.18047" lon="3.43965">
        <ele>364.09</ele>
        <time>2017-12-29T09:35:19Z</time>
      </trkpt>
      <trkpt lat="46.18029" lon="3.43976">
        <ele>363.62</ele>
        <time>2017-12-29T09:35:25Z</time>
      </trkpt>
      <trkpt lat="46.18011" lon="3.43987">
        <ele>364.16</ele>
        <time>2017-12-29T09:35:32Z</time>
      </trkpt>
      <trkpt lat="46.17994" lon="3.43995">
        <ele>363.56</ele>
        <time>2017-12-29T09:35:38Z</time>
      </trkpt>
      <trkpt lat="46.17974" lon="3.44003">
        <ele>364.54</ele>
        <time>2017-12-29T09:35:45Z</time>
      </trkpt>
      <trkpt lat="46.17958" lon="3.44012">
        <ele>362.64</ele>
        <time>2017-12-29T09:35:51Z</time>
      </trkpt>
      <trkpt lat="46.1794" lon="3.44025">
        <ele>363.26</ele>
        <time>2017-12-29T09:35:58Z</time>
      </trkpt>
      <trkpt lat="46.1794" lon="3.44054">
        <ele>365.33</ele>
        <time>2017-12-29T09:36:05Z</time>
      </trkpt>
      <trkpt lat="46.17941" lon="3.44083">
        <ele>362.94</ele>
        <time>2017-12-29T09:36:12Z</time>
      </trkpt>
      <trkpt lat="46.17942" lon="3.44112">
        <ele>361.85</ele>
        <time>2017-12-29T09:36:19Z</time>
      </trkpt>
      <trkpt lat="46.17945" lon="3.44138">
        <ele>360.56</ele>
        <time>2017-12-29T09:36:25Z</time>
      </trkpt>
      <trkpt lat="46.17954" lon="3.44165">
        <ele>357.89</ele>
        <time>2017-12-29T09:36:32Z</time>
      </trkpt>
      <trkpt lat="46.17972" lon="3.44175">
        <ele>355.17</ele>
        <time>2017-12-29T09:36:38Z</time>
      </trkpt>
      <trkpt lat="46.17989" lon="3.44182">
        <ele>351.89</ele>
        <time>2017-12-29T09:36:44Z</time>
      </trkpt>
      <trkpt lat="46.18007" lon="3.44192">
        <ele>352.46</ele>
        <time>2017-12-29T09:36:52Z</time>
      </trkpt>
      <trkpt lat="46.18009" lon="3.44221">
        <ele>347.67</ele>
        <time>2017-12-29T09:37:07Z</time>
      </trkpt>
      <trkpt lat="46.18006" lon="3.44249">
        <ele>345.65</ele>
        <time>2017-12-29T09:37:13Z</time>
      </trkpt>
      <trkpt lat="46.18003" lon="3.44276">
        <ele>343.79</ele>
        <time>2017-12-29T09:37:19Z</time>
      </trkpt>
      <trkpt lat="46.18002" lon="3.44303">
        <ele>342.73</ele>
        <time>2017-12-29T09:37:25Z</time>
      </trkpt>
      <trkpt lat="46.18" lon="3.4433">
        <ele>338.71</ele>
        <time>2017-12-29T09:37:31Z</time>
      </trkpt>
      <trkpt lat="46.17994" lon="3.44354">
        <ele>339.63</ele>
        <time>2017-12-29T09:37:39Z</time>
      </trkpt>
      <trkpt lat="46.17976" lon="3.44366">
        <ele>335.93</ele>
        <time>2017-12-29T09:37:47Z</time>
      </trkpt>
      <trkpt lat="46.17958" lon="3.44377">
        <ele>337.89</ele>
        <time>2017-12-29T09:37:54Z</time>
      </trkpt>
      <trkpt lat="46.17939" lon="3.44383">
        <ele>338.76</ele>
        <time>2017-12-29T09:38:00Z</time>
      </trkpt>
      <trkpt lat="46.17922" lon="3.44395">
        <ele>333.15</ele>
        <time>2017-12-29T09:38:07Z</time>
      </trkpt>
      <trkpt lat="46.17902" lon="3.44389">
        <ele>334.35</ele>
        <time>2017-12-29T09:38:14Z</time>
      </trkpt>
      <trkpt lat="46.17884" lon="3.44383">
        <ele>337.78</ele>
        <time>2017-12-29T09:38:21Z</time>
      </trkpt>
      <trkpt lat="46.17865" lon="3.4438">
        <ele>335.36</ele>
        <time>2017-12-29T09:38:28Z</time>
      </trkpt>
      <trkpt lat="46.17845" lon="3.4438">
        <ele>333.47</ele>
        <time>2017-12-29T09:38:36Z</time>
      </trkpt>
      <trkpt lat="46.17827" lon="3.44392">
        <ele>330.47</ele>
        <time>2017-12-29T09:38:42Z</time>
      </trkpt>
      <trkpt lat="46.17817" lon="3.44418">
        <ele>330.84</ele>
        <time>2017-12-29T09:38:51Z</time>
      </trkpt>
      <trkpt lat="46.17827" lon="3.44443">
        <ele>329.59</ele>
        <time>2017-12-29T09:39:01Z</time>
      </trkpt>
      <trkpt lat="46.17832" lon="3.4447">
        <ele>329.26</ele>
        <time>2017-12-29T09:39:07Z</time>
      </trkpt>
      <trkpt lat="46.17826" lon="3.44495">
        <ele>319.19</ele>
        <time>2017-12-29T09:39:13Z</time>
      </trkpt>
      <trkpt lat="46.17816" lon="3.44518">
        <ele>321.32</ele>
        <time>2017-12-29T09:39:22Z</time>
      </trkpt>
      <trkpt lat="46.17806" lon="3.4454">
        <ele>324.83</ele>
        <time>2017-12-29T09:39:29Z</time>
      </trkpt>
      <trkpt lat="46.17797" lon="3.44564">
        <ele>330.74</ele>
        <time>2017-12-29T09:39:38Z</time>
      </trkpt>
      <trkpt lat="46.17791" lon="3.44589">
        <ele>327.95</ele>
        <time>2017-12-29T09:39:44Z</time>
      </trkpt>
      <trkpt lat="46.17785" lon="3.44615">
        <ele>327</ele>
        <time>2017-12-29T09:39:53Z</time>
      </trkpt>
      <trkpt lat="46.1779" lon="3.44644">
        <ele>334.86</ele>
        <time>2017-12-29T09:40:02Z</time>
      </trkpt>
      <trkpt lat="46.1778" lon="3.44666">
        <ele>330.96</ele>
        <time>2017-12-29T09:40:10Z</time>
      </trkpt>
      <trkpt lat="46.17762" lon="3.44668">
        <ele>329.56</ele>
        <time>2017-12-29T09:40:16Z</time>
      </trkpt>
      <trkpt lat="46.17747" lon="3.44683">
        <ele>329.17</ele>
        <time>2017-12-29T09:40:25Z</time>
      </trkpt>
      <trkpt lat="46.17735" lon="3.44703">
        <ele>332.43</ele>
        <time>2017-12-29T09:40:33Z</time>
      </trkpt>
      <trkpt lat="46.17717" lon="3.44711">
        <ele>330.57</ele>
        <time>2017-12-29T09:40:41Z</time>
      </trkpt>
      <trkpt lat="46.177" lon="3.44697">
        <ele>332.77</ele>
        <time>2017-12-29T09:40:49Z</time>
      </trkpt>
      <trkpt lat="46.17683" lon="3.44686">
        <ele>336.15</ele>
        <time>2017-12-29T09:40:56Z</time>
      </trkpt>
      <trkpt lat="46.17665" lon="3.44673">
        <ele>335.56</ele>
        <time>2017-12-29T09:41:04Z</time>
      </trkpt>
      <trkpt lat="46.17651" lon="3.44656">
        <ele>339.84</ele>
        <time>2017-12-29T09:41:16Z</time>
      </trkpt>
      <trkpt lat="46.17632" lon="3.4466">
        <ele>343.1</ele>
        <time>2017-12-29T09:41:28Z</time>
      </trkpt>
      <trkpt lat="46.17613" lon="3.44671">
        <ele>351.42</ele>
        <time>2017-12-29T09:41:41Z</time>
      </trkpt>
      <trkpt lat="46.17594" lon="3.44674">
        <ele>357.81</ele>
        <time>2017-12-29T09:41:53Z</time>
      </trkpt>
      <trkpt lat="46.17576" lon="3.44676">
        <ele>364.01</ele>
        <time>2017-12-29T09:42:00Z</time>
      </trkpt>
      <trkpt lat="46.17556" lon="3.44678">
        <ele>361.13</ele>
        <time>2017-12-29T09:42:09Z</time>
      </trkpt>
      <trkpt lat="46.17536" lon="3.44681">
        <ele>359.81</ele>
        <time>2017-12-29T09:42:16Z</time>
      </trkpt>
      <trkpt lat="46.1752" lon="3.4469">
        <ele>361.26</ele>
        <time>2017-12-29T09:42:24Z</time>
      </trkpt>
      <trkpt lat="46.17501" lon="3.44697">
        <ele>360.86</ele>
        <time>2017-12-29T09:42:30Z</time>
      </trkpt>
      <trkpt lat="46.17483" lon="3.44698">
        <ele>356.92</ele>
        <time>2017-12-29T09:42:36Z</time>
      </trkpt>
      <trkpt lat="46.17463" lon="3.44704">
        <ele>354.49</ele>
        <time>2017-12-29T09:42:43Z</time>
      </trkpt>
      <trkpt lat="46.17446" lon="3.44713">
        <ele>353.5</ele>
        <time>2017-12-29T09:42:49Z</time>
      </trkpt>
      <trkpt lat="46.1743" lon="3.44731">
        <ele>360.16</ele>
        <time>2017-12-29T09:42:57Z</time>
      </trkpt>
      <trkpt lat="46.17415" lon="3.44752">
        <ele>363.15</ele>
        <time>2017-12-29T09:43:05Z</time>
      </trkpt>
      <trkpt lat="46.174" lon="3.4477">
        <ele>362.45</ele>
        <time>2017-12-29T09:43:13Z</time>
      </trkpt>
      <trkpt lat="46.17383" lon="3.44787">
        <ele>364.53</ele>
        <time>2017-12-29T09:43:23Z</time>
      </trkpt>
      <trkpt lat="46.17368" lon="3.44803">
        <ele>361.98</ele>
        <time>2017-12-29T09:43:29Z</time>
      </trkpt>
      <trkpt lat="46.17352" lon="3.44819">
        <ele>365.86</ele>
        <time>2017-12-29T09:43:36Z</time>
      </trkpt>
      <trkpt lat="46.17333" lon="3.44827">
        <ele>370.19</ele>
        <time>2017-12-29T09:43:44Z</time>
      </trkpt>
      <trkpt lat="46.17313" lon="3.44828">
        <ele>372.65</ele>
        <time>2017-12-29T09:43:51Z</time>
      </trkpt>
      <trkpt lat="46.17294" lon="3.4483">
        <ele>370.46</ele>
        <time>2017-12-29T09:43:58Z</time>
      </trkpt>
      <trkpt lat="46.17276" lon="3.4483">
        <ele>369.57</ele>
        <time>2017-12-29T09:44:04Z</time>
      </trkpt>
      <trkpt lat="46.17257" lon="3.44828">
        <ele>372.24</ele>
        <time>2017-12-29T09:44:12Z</time>
      </trkpt>
      <trkpt lat="46.17237" lon="3.44819">
        <ele>374.53</ele>
        <time>2017-12-29T09:44:19Z</time>
      </trkpt>
      <trkpt lat="46.1722" lon="3.44806">
        <ele>374.79</ele>
        <time>2017-12-29T09:44:26Z</time>
      </trkpt>
      <trkpt lat="46.17205" lon="3.44791">
        <ele>377.49</ele>
        <time>2017-12-29T09:44:33Z</time>
      </trkpt>
      <trkpt lat="46.17188" lon="3.44778">
        <ele>383.17</ele>
        <time>2017-12-29T09:44:41Z</time>
      </trkpt>
      <trkpt lat="46.1717" lon="3.44766">
        <ele>380.88</ele>
        <time>2017-12-29T09:44:47Z</time>
      </trkpt>
      <trkpt lat="46.17151" lon="3.44756">
        <ele>381.47</ele>
        <time>2017-12-29T09:44:55Z</time>
      </trkpt>
      <trkpt lat="46.17134" lon="3.44748">
        <ele>379.35</ele>
        <time>2017-12-29T09:45:01Z</time>
      </trkpt>
      <trkpt lat="46.17115" lon="3.4474">
        <ele>377.17</ele>
        <time>2017-12-29T09:45:07Z</time>
      </trkpt>
      <trkpt lat="46.17097" lon="3.44735">
        <ele>375.56</ele>
        <time>2017-12-29T09:45:13Z</time>
      </trkpt>
      <trkpt lat="46.17078" lon="3.44732">
        <ele>374.85</ele>
        <time>2017-12-29T09:45:20Z</time>
      </trkpt>
      <trkpt lat="46.17057" lon="3.44727">
        <ele>376.57</ele>
        <time>2017-12-29T09:45:27Z</time>
      </trkpt>
      <trkpt lat="46.17037" lon="3.44726">
        <ele>377.25</ele>
        <time>2017-12-29T09:45:34Z</time>
      </trkpt>
      <trkpt lat="46.17019" lon="3.44723">
        <ele>379.25</ele>
        <time>2017-12-29T09:45:41Z</time>
      </trkpt>
      <trkpt lat="46.16998" lon="3.44724">
        <ele>378.71</ele>
        <time>2017-12-29T09:45:49Z</time>
      </trkpt>
      <trkpt lat="46.1698" lon="3.44728">
        <ele>378.55</ele>
        <time>2017-12-29T09:45:56Z</time>
      </trkpt>
      <trkpt lat="46.16968" lon="3.44751">
        <ele>377.91</ele>
        <time>2017-12-29T09:46:03Z</time>
      </trkpt>
      <trkpt lat="46.16962" lon="3.44778">
        <ele>380.25</ele>
        <time>2017-12-29T09:46:10Z</time>
      </trkpt>
      <trkpt lat="46.16956" lon="3.44803">
        <ele>380.56</ele>
        <time>2017-12-29T09:46:17Z</time>
      </trkpt>
      <trkpt lat="46.16949" lon="3.44832">
        <ele>381.25</ele>
        <time>2017-12-29T09:46:24Z</time>
      </trkpt>
      <trkpt lat="46.16942" lon="3.44857">
        <ele>381.26</ele>
        <time>2017-12-29T09:46:31Z</time>
      </trkpt>
      <trkpt lat="46.16933" lon="3.44881">
        <ele>387.24</ele>
        <time>2017-12-29T09:46:40Z</time>
      </trkpt>
      <trkpt lat="46.16928" lon="3.44906">
        <ele>385.85</ele>
        <time>2017-12-29T09:46:52Z</time>
      </trkpt>
      <trkpt lat="46.16915" lon="3.44926">
        <ele>385.55</ele>
        <time>2017-12-29T09:48:42Z</time>
      </trkpt>
      <trkpt lat="46.16904" lon="3.44949">
        <ele>385.55</ele>
        <time>2017-12-29T09:48:49Z</time>
      </trkpt>
      <trkpt lat="46.16891" lon="3.44972">
        <ele>382.94</ele>
        <time>2017-12-29T09:48:56Z</time>
      </trkpt>
      <trkpt lat="46.16876" lon="3.44989">
        <ele>387.48</ele>
        <time>2017-12-29T09:49:04Z</time>
      </trkpt>
      <trkpt lat="46.16861" lon="3.4501">
        <ele>387.55</ele>
        <time>2017-12-29T09:49:11Z</time>
      </trkpt>
      <trkpt lat="46.16844" lon="3.45026">
        <ele>387.26</ele>
        <time>2017-12-29T09:49:18Z</time>
      </trkpt>
      <trkpt lat="46.16829" lon="3.45041">
        <ele>383.95</ele>
        <time>2017-12-29T09:49:24Z</time>
      </trkpt>
      <trkpt lat="46.16811" lon="3.45048">
        <ele>383.53</ele>
        <time>2017-12-29T09:49:30Z</time>
      </trkpt>
      <trkpt lat="46.16793" lon="3.45051">
        <ele>380.85</ele>
        <time>2017-12-29T09:49:36Z</time>
      </trkpt>
      <trkpt lat="46.16773" lon="3.45052">
        <ele>379.58</ele>
        <time>2017-12-29T09:49:42Z</time>
      </trkpt>
      <trkpt lat="46.16754" lon="3.45051">
        <ele>377.35</ele>
        <time>2017-12-29T09:49:48Z</time>
      </trkpt>
      <trkpt lat="46.16735" lon="3.45051">
        <ele>375.87</ele>
        <time>2017-12-29T09:49:54Z</time>
      </trkpt>
      <trkpt lat="46.16715" lon="3.45052">
        <ele>373.77</ele>
        <time>2017-12-29T09:50:00Z</time>
      </trkpt>
      <trkpt lat="46.16695" lon="3.45048">
        <ele>371.64</ele>
        <time>2017-12-29T09:50:07Z</time>
      </trkpt>
      <trkpt lat="46.16676" lon="3.45044">
        <ele>372.59</ele>
        <time>2017-12-29T09:50:15Z</time>
      </trkpt>
      <trkpt lat="46.1666" lon="3.4503">
        <ele>371.55</ele>
        <time>2017-12-29T09:50:22Z</time>
      </trkpt>
      <trkpt lat="46.16646" lon="3.45009">
        <ele>370.85</ele>
        <time>2017-12-29T09:50:28Z</time>
      </trkpt>
      <trkpt lat="46.16632" lon="3.4499">
        <ele>370.26</ele>
        <time>2017-12-29T09:50:34Z</time>
      </trkpt>
      <trkpt lat="46.16614" lon="3.44974">
        <ele>368.01</ele>
        <time>2017-12-29T09:50:41Z</time>
      </trkpt>
      <trkpt lat="46.16598" lon="3.44962">
        <ele>372.68</ele>
        <time>2017-12-29T09:50:48Z</time>
      </trkpt>
      <trkpt lat="46.16578" lon="3.44962">
        <ele>367.56</ele>
        <time>2017-12-29T09:50:55Z</time>
      </trkpt>
      <trkpt lat="46.16558" lon="3.44966">
        <ele>369.23</ele>
        <time>2017-12-29T09:51:02Z</time>
      </trkpt>
      <trkpt lat="46.1654" lon="3.44971">
        <ele>371.53</ele>
        <time>2017-12-29T09:51:09Z</time>
      </trkpt>
      <trkpt lat="46.16521" lon="3.44982">
        <ele>372.46</ele>
        <time>2017-12-29T09:51:17Z</time>
      </trkpt>
      <trkpt lat="46.16506" lon="3.44998">
        <ele>374.49</ele>
        <time>2017-12-29T09:51:25Z</time>
      </trkpt>
      <trkpt lat="46.16489" lon="3.45014">
        <ele>374.34</ele>
        <time>2017-12-29T09:51:32Z</time>
      </trkpt>
      <trkpt lat="46.16472" lon="3.45028">
        <ele>374.53</ele>
        <time>2017-12-29T09:51:39Z</time>
      </trkpt>
      <trkpt lat="46.16454" lon="3.45041">
        <ele>375.46</ele>
        <time>2017-12-29T09:51:46Z</time>
      </trkpt>
      <trkpt lat="46.16435" lon="3.4505">
        <ele>376.25</ele>
        <time>2017-12-29T09:51:53Z</time>
      </trkpt>
      <trkpt lat="46.16417" lon="3.45056">
        <ele>378.23</ele>
        <time>2017-12-29T09:52:00Z</time>
      </trkpt>
      <trkpt lat="46.16399" lon="3.45062">
        <ele>382.37</ele>
        <time>2017-12-29T09:52:08Z</time>
      </trkpt>
      <trkpt lat="46.1638" lon="3.45065">
        <ele>383.46</ele>
        <time>2017-12-29T09:52:14Z</time>
      </trkpt>
      <trkpt lat="46.16359" lon="3.45071">
        <ele>380.16</ele>
        <time>2017-12-29T09:52:20Z</time>
      </trkpt>
      <trkpt lat="46.16338" lon="3.45077">
        <ele>380.06</ele>
        <time>2017-12-29T09:52:27Z</time>
      </trkpt>
      <trkpt lat="46.16319" lon="3.4508">
        <ele>380.45</ele>
        <time>2017-12-29T09:52:34Z</time>
      </trkpt>
      <trkpt lat="46.163" lon="3.45086">
        <ele>381.56</ele>
        <time>2017-12-29T09:52:41Z</time>
      </trkpt>
      <trkpt lat="46.16281" lon="3.45088">
        <ele>378.94</ele>
        <time>2017-12-29T09:52:48Z</time>
      </trkpt>
      <trkpt lat="46.16261" lon="3.45085">
        <ele>375.94</ele>
        <time>2017-12-29T09:52:55Z</time>
      </trkpt>
      <trkpt lat="46.16242" lon="3.45086">
        <ele>373.01</ele>
        <time>2017-12-29T09:53:02Z</time>
      </trkpt>
      <trkpt lat="46.16223" lon="3.45097">
        <ele>376.36</ele>
        <time>2017-12-29T09:53:09Z</time>
      </trkpt>
      <trkpt lat="46.16204" lon="3.45108">
        <ele>377.25</ele>
        <time>2017-12-29T09:53:16Z</time>
      </trkpt>
      <trkpt lat="46.16185" lon="3.45117">
        <ele>379.55</ele>
        <time>2017-12-29T09:53:23Z</time>
      </trkpt>
      <trkpt lat="46.16168" lon="3.45128">
        <ele>383.16</ele>
        <time>2017-12-29T09:53:30Z</time>
      </trkpt>
      <trkpt lat="46.16149" lon="3.45138">
        <ele>384.52</ele>
        <time>2017-12-29T09:53:37Z</time>
      </trkpt>
      <trkpt lat="46.16132" lon="3.45151">
        <ele>386.54</ele>
        <time>2017-12-29T09:53:44Z</time>
      </trkpt>
      <trkpt lat="46.16118" lon="3.45173">
        <ele>386.56</ele>
        <time>2017-12-29T09:53:52Z</time>
      </trkpt>
      <trkpt lat="46.1611" lon="3.45199">
        <ele>385.58</ele>
        <time>2017-12-29T09:53:59Z</time>
      </trkpt>
      <trkpt lat="46.16102" lon="3.45224">
        <ele>384.79</ele>
        <time>2017-12-29T09:54:06Z</time>
      </trkpt>
      <trkpt lat="46.16096" lon="3.45252">
        <ele>383.85</ele>
        <time>2017-12-29T09:54:13Z</time>
      </trkpt>
      <trkpt lat="46.1609" lon="3.45277">
        <ele>384.55</ele>
        <time>2017-12-29T09:54:19Z</time>
      </trkpt>
      <trkpt lat="46.16089" lon="3.45306">
        <ele>385.49</ele>
        <time>2017-12-29T09:54:27Z</time>
      </trkpt>
      <trkpt lat="46.16091" lon="3.45334">
        <ele>385.28</ele>
        <time>2017-12-29T09:54:34Z</time>
      </trkpt>
      <trkpt lat="46.16093" lon="3.45363">
        <ele>384.55</ele>
        <time>2017-12-29T09:54:41Z</time>
      </trkpt>
      <trkpt lat="46.16096" lon="3.45392">
        <ele>384.49</ele>
        <time>2017-12-29T09:54:48Z</time>
      </trkpt>
      <trkpt lat="46.16098" lon="3.45419">
        <ele>384.34</ele>
        <time>2017-12-29T09:54:55Z</time>
      </trkpt>
      <trkpt lat="46.161" lon="3.45447">
        <ele>385.55</ele>
        <time>2017-12-29T09:55:02Z</time>
      </trkpt>
      <trkpt lat="46.16101" lon="3.45476">
        <ele>387.46</ele>
        <time>2017-12-29T09:55:10Z</time>
      </trkpt>
      <trkpt lat="46.16095" lon="3.45501">
        <ele>390.44</ele>
        <time>2017-12-29T09:55:19Z</time>
      </trkpt>
      <trkpt lat="46.16099" lon="3.45531">
        <ele>391.25</ele>
        <time>2017-12-29T09:55:26Z</time>
      </trkpt>
      <trkpt lat="46.16104" lon="3.4556">
        <ele>385.45</ele>
        <time>2017-12-29T09:55:32Z</time>
      </trkpt>
      <trkpt lat="46.16116" lon="3.4558">
        <ele>379.82</ele>
        <time>2017-12-29T09:55:37Z</time>
      </trkpt>
      <trkpt lat="46.16132" lon="3.45593">
        <ele>378.85</ele>
        <time>2017-12-29T09:55:43Z</time>
      </trkpt>
      <trkpt lat="46.16147" lon="3.45611">
        <ele>379.85</ele>
        <time>2017-12-29T09:55:49Z</time>
      </trkpt>
      <trkpt lat="46.16162" lon="3.45626">
        <ele>382.38</ele>
        <time>2017-12-29T09:55:56Z</time>
      </trkpt>
      <trkpt lat="46.16182" lon="3.45626">
        <ele>380.56</ele>
        <time>2017-12-29T09:56:03Z</time>
      </trkpt>
      <trkpt lat="46.16201" lon="3.45618">
        <ele>378.64</ele>
        <time>2017-12-29T09:56:10Z</time>
      </trkpt>
      <trkpt lat="46.16219" lon="3.45608">
        <ele>378.25</ele>
        <time>2017-12-29T09:56:17Z</time>
      </trkpt>
      <trkpt lat="46.16234" lon="3.4559">
        <ele>378.56</ele>
        <time>2017-12-29T09:56:25Z</time>
      </trkpt>
      <trkpt lat="46.16247" lon="3.45571">
        <ele>379.56</ele>
        <time>2017-12-29T09:56:33Z</time>
      </trkpt>
      <trkpt lat="46.1626" lon="3.45549">
        <ele>376.86</ele>
        <time>2017-12-29T09:56:41Z</time>
      </trkpt>
      <trkpt lat="46.16274" lon="3.45528">
        <ele>375.35</ele>
        <time>2017-12-29T09:56:49Z</time>
      </trkpt>
      <trkpt lat="46.16289" lon="3.45514">
        <ele>376.46</ele>
        <time>2017-12-29T09:56:56Z</time>
      </trkpt>
      <trkpt lat="46.163" lon="3.45493">
        <ele>381.61</ele>
        <time>2017-12-29T09:57:03Z</time>
      </trkpt>
      <trkpt lat="46.16307" lon="3.45466">
        <ele>380.94</ele>
        <time>2017-12-29T09:57:10Z</time>
      </trkpt>
      <trkpt lat="46.16307" lon="3.45432">
        <ele>377.05</ele>
        <time>2017-12-29T09:57:16Z</time>
      </trkpt>
      <trkpt lat="46.16313" lon="3.45405">
        <ele>375.55</ele>
        <time>2017-12-29T09:57:23Z</time>
      </trkpt>
      <trkpt lat="46.16314" lon="3.45377">
        <ele>375.94</ele>
        <time>2017-12-29T09:57:29Z</time>
      </trkpt>
      <trkpt lat="46.16313" lon="3.45348">
        <ele>375.67</ele>
        <time>2017-12-29T09:57:35Z</time>
      </trkpt>
      <trkpt lat="46.16303" lon="3.45323">
        <ele>375.82</ele>
        <time>2017-12-29T09:57:41Z</time>
      </trkpt>
      <trkpt lat="46.16292" lon="3.45299">
        <ele>378.55</ele>
        <time>2017-12-29T09:57:49Z</time>
      </trkpt>
      <trkpt lat="46.16308" lon="3.45311">
        <ele>376.24</ele>
        <time>2017-12-29T09:58:06Z</time>
      </trkpt>
      <trkpt lat="46.16321" lon="3.45331">
        <ele>373.49</ele>
        <time>2017-12-29T09:58:15Z</time>
      </trkpt>
      <trkpt lat="46.16331" lon="3.45355">
        <ele>373.65</ele>
        <time>2017-12-29T09:58:24Z</time>
      </trkpt>
      <trkpt lat="46.16342" lon="3.45379">
        <ele>372.57</ele>
        <time>2017-12-29T09:58:31Z</time>
      </trkpt>
      <trkpt lat="46.16354" lon="3.454">
        <ele>368.2</ele>
        <time>2017-12-29T09:58:38Z</time>
      </trkpt>
      <trkpt lat="46.16365" lon="3.45428">
        <ele>364.71</ele>
        <time>2017-12-29T09:58:48Z</time>
      </trkpt>
      <trkpt lat="46.16369" lon="3.45455">
        <ele>358.22</ele>
        <time>2017-12-29T09:58:55Z</time>
      </trkpt>
      <trkpt lat="46.16377" lon="3.45478">
        <ele>359.36</ele>
        <time>2017-12-29T09:59:00Z</time>
      </trkpt>
      <trkpt lat="46.16388" lon="3.45504">
        <ele>360.3</ele>
        <time>2017-12-29T09:59:06Z</time>
      </trkpt>
      <trkpt lat="46.16396" lon="3.45531">
        <ele>355.34</ele>
        <time>2017-12-29T09:59:11Z</time>
      </trkpt>
      <trkpt lat="46.16399" lon="3.45558">
        <ele>347.11</ele>
        <time>2017-12-29T09:59:16Z</time>
      </trkpt>
      <trkpt lat="46.16388" lon="3.4558">
        <ele>341.89</ele>
        <time>2017-12-29T09:59:23Z</time>
      </trkpt>
      <trkpt lat="46.16375" lon="3.45601">
        <ele>342.46</ele>
        <time>2017-12-29T09:59:31Z</time>
      </trkpt>
      <trkpt lat="46.16359" lon="3.45619">
        <ele>342.55</ele>
        <time>2017-12-29T09:59:39Z</time>
      </trkpt>
      <trkpt lat="46.16349" lon="3.4564">
        <ele>340.93</ele>
        <time>2017-12-29T09:59:45Z</time>
      </trkpt>
      <trkpt lat="46.16336" lon="3.45659">
        <ele>341.58</ele>
        <time>2017-12-29T09:59:52Z</time>
      </trkpt>
      <trkpt lat="46.16323" lon="3.45679">
        <ele>340.72</ele>
        <time>2017-12-29T09:59:59Z</time>
      </trkpt>
      <trkpt lat="46.16312" lon="3.45702">
        <ele>342.55</ele>
        <time>2017-12-29T10:00:07Z</time>
      </trkpt>
      <trkpt lat="46.16298" lon="3.45724">
        <ele>343.53</ele>
        <time>2017-12-29T10:00:15Z</time>
      </trkpt>
      <trkpt lat="46.16288" lon="3.45746">
        <ele>343.62</ele>
        <time>2017-12-29T10:00:22Z</time>
      </trkpt>
      <trkpt lat="46.16279" lon="3.45771">
        <ele>342.49</ele>
        <time>2017-12-29T10:00:30Z</time>
      </trkpt>
      <trkpt lat="46.16267" lon="3.45791">
        <ele>341.94</ele>
        <time>2017-12-29T10:00:38Z</time>
      </trkpt>
      <trkpt lat="46.16248" lon="3.45792">
        <ele>341.03</ele>
        <time>2017-12-29T10:00:48Z</time>
      </trkpt>
      <trkpt lat="46.16231" lon="3.45777">
        <ele>346.4</ele>
        <time>2017-12-29T10:01:00Z</time>
      </trkpt>
      <trkpt lat="46.16214" lon="3.4576">
        <ele>345.43</ele>
        <time>2017-12-29T10:01:10Z</time>
      </trkpt>
      <trkpt lat="46.16199" lon="3.45746">
        <ele>347.46</ele>
        <time>2017-12-29T10:01:18Z</time>
      </trkpt>
      <trkpt lat="46.16185" lon="3.45728">
        <ele>357.16</ele>
        <time>2017-12-29T10:01:29Z</time>
      </trkpt>
      <trkpt lat="46.16167" lon="3.45719">
        <ele>360.36</ele>
        <time>2017-12-29T10:01:38Z</time>
      </trkpt>
      <trkpt lat="46.1615" lon="3.45703">
        <ele>363.81</ele>
        <time>2017-12-29T10:01:48Z</time>
      </trkpt>
      <trkpt lat="46.16136" lon="3.45683">
        <ele>361.22</ele>
        <time>2017-12-29T10:01:55Z</time>
      </trkpt>
      <trkpt lat="46.16123" lon="3.45663">
        <ele>359.57</ele>
        <time>2017-12-29T10:02:03Z</time>
      </trkpt>
      <trkpt lat="46.16109" lon="3.45643">
        <ele>359.73</ele>
        <time>2017-12-29T10:02:12Z</time>
      </trkpt>
      <trkpt lat="46.16091" lon="3.45637">
        <ele>366.43</ele>
        <time>2017-12-29T10:02:21Z</time>
      </trkpt>
      <trkpt lat="46.16074" lon="3.45627">
        <ele>366.03</ele>
        <time>2017-12-29T10:02:26Z</time>
      </trkpt>
      <trkpt lat="46.16057" lon="3.45611">
        <ele>361.63</ele>
        <time>2017-12-29T10:02:32Z</time>
      </trkpt>
      <trkpt lat="46.1604" lon="3.45603">
        <ele>359.86</ele>
        <time>2017-12-29T10:02:37Z</time>
      </trkpt>
      <trkpt lat="46.16018" lon="3.456">
        <ele>358</ele>
        <time>2017-12-29T10:02:43Z</time>
      </trkpt>
      <trkpt lat="46.15999" lon="3.45604">
        <ele>355.53</ele>
        <time>2017-12-29T10:02:49Z</time>
      </trkpt>
      <trkpt lat="46.15979" lon="3.45606">
        <ele>350.58</ele>
        <time>2017-12-29T10:02:57Z</time>
      </trkpt>
      <trkpt lat="46.15966" lon="3.45587">
        <ele>355.45</ele>
        <time>2017-12-29T10:03:09Z</time>
      </trkpt>
      <trkpt lat="46.15961" lon="3.4556">
        <ele>355.52</ele>
        <time>2017-12-29T10:03:18Z</time>
      </trkpt>
      <trkpt lat="46.15946" lon="3.45541">
        <ele>363.62</ele>
        <time>2017-12-29T10:03:33Z</time>
      </trkpt>
      <trkpt lat="46.15929" lon="3.4553">
        <ele>361.63</ele>
        <time>2017-12-29T10:03:50Z</time>
      </trkpt>
      <trkpt lat="46.15915" lon="3.45509">
        <ele>364.76</ele>
        <time>2017-12-29T10:04:00Z</time>
      </trkpt>
      <trkpt lat="46.15913" lon="3.45482">
        <ele>362.25</ele>
        <time>2017-12-29T10:04:11Z</time>
      </trkpt>
      <trkpt lat="46.1592" lon="3.45458">
        <ele>364.15</ele>
        <time>2017-12-29T10:04:22Z</time>
      </trkpt>
      <trkpt lat="46.15925" lon="3.45431">
        <ele>366.84</ele>
        <time>2017-12-29T10:04:30Z</time>
      </trkpt>
      <trkpt lat="46.15924" lon="3.45405">
        <ele>367.36</ele>
        <time>2017-12-29T10:04:38Z</time>
      </trkpt>
      <trkpt lat="46.1593" lon="3.45377">
        <ele>371.13</ele>
        <time>2017-12-29T10:04:46Z</time>
      </trkpt>
      <trkpt lat="46.1593" lon="3.4535">
        <ele>372.55</ele>
        <time>2017-12-29T10:04:53Z</time>
      </trkpt>
      <trkpt lat="46.15927" lon="3.45321">
        <ele>376.5</ele>
        <time>2017-12-29T10:05:03Z</time>
      </trkpt>
      <trkpt lat="46.15921" lon="3.45296">
        <ele>387.88</ele>
        <time>2017-12-29T10:05:16Z</time>
      </trkpt>
      <trkpt lat="46.15911" lon="3.45274">
        <ele>387.21</ele>
        <time>2017-12-29T10:05:25Z</time>
      </trkpt>
      <trkpt lat="46.15893" lon="3.45257">
        <ele>387.44</ele>
        <time>2017-12-29T10:05:33Z</time>
      </trkpt>
      <trkpt lat="46.15879" lon="3.45238">
        <ele>391.43</ele>
        <time>2017-12-29T10:05:42Z</time>
      </trkpt>
      <trkpt lat="46.15863" lon="3.45224">
        <ele>393.48</ele>
        <time>2017-12-29T10:05:50Z</time>
      </trkpt>
      <trkpt lat="46.15853" lon="3.45199">
        <ele>399.43</ele>
        <time>2017-12-29T10:05:59Z</time>
      </trkpt>
      <trkpt lat="46.15842" lon="3.45172">
        <ele>400.56</ele>
        <time>2017-12-29T10:06:09Z</time>
      </trkpt>
      <trkpt lat="46.15837" lon="3.45145">
        <ele>406.31</ele>
        <time>2017-12-29T10:06:16Z</time>
      </trkpt>
      <trkpt lat="46.15832" lon="3.45117">
        <ele>403.73</ele>
        <time>2017-12-29T10:06:23Z</time>
      </trkpt>
      <trkpt lat="46.15836" lon="3.4509">
        <ele>403.53</ele>
        <time>2017-12-29T10:06:32Z</time>
      </trkpt>
      <trkpt lat="46.15818" lon="3.45082">
        <ele>400.58</ele>
        <time>2017-12-29T10:06:50Z</time>
      </trkpt>
      <trkpt lat="46.15801" lon="3.45092">
        <ele>398.64</ele>
        <time>2017-12-29T10:06:57Z</time>
      </trkpt>
      <trkpt lat="46.15783" lon="3.45096">
        <ele>397.55</ele>
        <time>2017-12-29T10:07:04Z</time>
      </trkpt>
      <trkpt lat="46.15765" lon="3.45101">
        <ele>397.55</ele>
        <time>2017-12-29T10:07:10Z</time>
      </trkpt>
      <trkpt lat="46.15747" lon="3.45106">
        <ele>393.21</ele>
        <time>2017-12-29T10:07:16Z</time>
      </trkpt>
      <trkpt lat="46.15728" lon="3.45114">
        <ele>389.89</ele>
        <time>2017-12-29T10:07:22Z</time>
      </trkpt>
      <trkpt lat="46.15708" lon="3.45121">
        <ele>386.79</ele>
        <time>2017-12-29T10:07:28Z</time>
      </trkpt>
      <trkpt lat="46.1569" lon="3.45126">
        <ele>387.53</ele>
        <time>2017-12-29T10:07:35Z</time>
      </trkpt>
      <trkpt lat="46.15672" lon="3.45137">
        <ele>385.58</ele>
        <time>2017-12-29T10:07:41Z</time>
      </trkpt>
      <trkpt lat="46.15658" lon="3.45156">
        <ele>383.67</ele>
        <time>2017-12-29T10:07:48Z</time>
      </trkpt>
      <trkpt lat="46.15646" lon="3.45178">
        <ele>381.56</ele>
        <time>2017-12-29T10:07:54Z</time>
      </trkpt>
      <trkpt lat="46.15633" lon="3.45199">
        <ele>379.79</ele>
        <time>2017-12-29T10:08:00Z</time>
      </trkpt>
      <trkpt lat="46.15621" lon="3.45221">
        <ele>376.65</ele>
        <time>2017-12-29T10:08:06Z</time>
      </trkpt>
      <trkpt lat="46.15605" lon="3.45239">
        <ele>373.86</ele>
        <time>2017-12-29T10:08:13Z</time>
      </trkpt>
      <trkpt lat="46.15598" lon="3.45269">
        <ele>373.83</ele>
        <time>2017-12-29T10:08:21Z</time>
      </trkpt>
      <trkpt lat="46.15586" lon="3.45291">
        <ele>372.53</ele>
        <time>2017-12-29T10:08:29Z</time>
      </trkpt>
      <trkpt lat="46.15571" lon="3.45305">
        <ele>371.85</ele>
        <time>2017-12-29T10:08:38Z</time>
      </trkpt>
      <trkpt lat="46.15566" lon="3.45331">
        <ele>369.16</ele>
        <time>2017-12-29T10:08:44Z</time>
      </trkpt>
      <trkpt lat="46.15564" lon="3.45358">
        <ele>366.3</ele>
        <time>2017-12-29T10:08:54Z</time>
      </trkpt>
      <trkpt lat="46.15566" lon="3.45388">
        <ele>367.25</ele>
        <time>2017-12-29T10:09:00Z</time>
      </trkpt>
      <trkpt lat="46.1557" lon="3.45419">
        <ele>360.13</ele>
        <time>2017-12-29T10:09:11Z</time>
      </trkpt>
      <trkpt lat="46.15572" lon="3.45449">
        <ele>352</ele>
        <time>2017-12-29T10:09:23Z</time>
      </trkpt>
      <trkpt lat="46.15578" lon="3.45473">
        <ele>347.67</ele>
        <time>2017-12-29T10:09:25Z</time>
      </trkpt>
      <trkpt lat="46.15589" lon="3.45501">
        <ele>343.28</ele>
        <time>2017-12-29T10:09:29Z</time>
      </trkpt>
      <trkpt lat="46.15597" lon="3.45527">
        <ele>340.16</ele>
        <time>2017-12-29T10:09:35Z</time>
      </trkpt>
      <trkpt lat="46.15605" lon="3.45556">
        <ele>333.65</ele>
        <time>2017-12-29T10:09:43Z</time>
      </trkpt>
      <trkpt lat="46.15593" lon="3.45578">
        <ele>330.42</ele>
        <time>2017-12-29T10:09:53Z</time>
      </trkpt>
      <trkpt lat="46.15582" lon="3.456">
        <ele>331.54</ele>
        <time>2017-12-29T10:10:00Z</time>
      </trkpt>
      <trkpt lat="46.15574" lon="3.45623">
        <ele>332.53</ele>
        <time>2017-12-29T10:10:06Z</time>
      </trkpt>
      <trkpt lat="46.15561" lon="3.45644">
        <ele>331.26</ele>
        <time>2017-12-29T10:10:13Z</time>
      </trkpt>
      <trkpt lat="46.15548" lon="3.45662">
        <ele>329.85</ele>
        <time>2017-12-29T10:10:19Z</time>
      </trkpt>
      <trkpt lat="46.1553" lon="3.45665">
        <ele>352.37</ele>
        <time>2017-12-29T10:10:29Z</time>
      </trkpt>
      <trkpt lat="46.15505" lon="3.45665">
        <ele>336.65</ele>
        <time>2017-12-29T10:10:37Z</time>
      </trkpt>
      <trkpt lat="46.15488" lon="3.45681">
        <ele>334.55</ele>
        <time>2017-12-29T10:10:46Z</time>
      </trkpt>
      <trkpt lat="46.15468" lon="3.45687">
        <ele>335.56</ele>
        <time>2017-12-29T10:10:54Z</time>
      </trkpt>
      <trkpt lat="46.15449" lon="3.45683">
        <ele>334.68</ele>
        <time>2017-12-29T10:11:07Z</time>
      </trkpt>
      <trkpt lat="46.15432" lon="3.45672">
        <ele>338.19</ele>
        <time>2017-12-29T10:11:13Z</time>
      </trkpt>
      <trkpt lat="46.15413" lon="3.4567">
        <ele>346.11</ele>
        <time>2017-12-29T10:11:19Z</time>
      </trkpt>
      <trkpt lat="46.15394" lon="3.45666">
        <ele>349.8</ele>
        <time>2017-12-29T10:11:26Z</time>
      </trkpt>
      <trkpt lat="46.15376" lon="3.4566">
        <ele>346.65</ele>
        <time>2017-12-29T10:11:33Z</time>
      </trkpt>
      <trkpt lat="46.15355" lon="3.45652">
        <ele>342.47</ele>
        <time>2017-12-29T10:11:40Z</time>
      </trkpt>
      <trkpt lat="46.15336" lon="3.45643">
        <ele>342.62</ele>
        <time>2017-12-29T10:11:49Z</time>
      </trkpt>
      <trkpt lat="46.15316" lon="3.4564">
        <ele>343.05</ele>
        <time>2017-12-29T10:11:56Z</time>
      </trkpt>
      <trkpt lat="46.15296" lon="3.45633">
        <ele>342.77</ele>
        <time>2017-12-29T10:12:02Z</time>
      </trkpt>
      <trkpt lat="46.15277" lon="3.45627">
        <ele>338.67</ele>
        <time>2017-12-29T10:12:08Z</time>
      </trkpt>
      <trkpt lat="46.15259" lon="3.45622">
        <ele>336.29</ele>
        <time>2017-12-29T10:12:13Z</time>
      </trkpt>
      <trkpt lat="46.15241" lon="3.45616">
        <ele>335.21</ele>
        <time>2017-12-29T10:12:19Z</time>
      </trkpt>
      <trkpt lat="46.15222" lon="3.45613">
        <ele>334.55</ele>
        <time>2017-12-29T10:12:26Z</time>
      </trkpt>
      <trkpt lat="46.15204" lon="3.45599">
        <ele>336.28</ele>
        <time>2017-12-29T10:12:36Z</time>
      </trkpt>
      <trkpt lat="46.15185" lon="3.45589">
        <ele>337.42</ele>
        <time>2017-12-29T10:12:44Z</time>
      </trkpt>
      <trkpt lat="46.15163" lon="3.45581">
        <ele>336.64</ele>
        <time>2017-12-29T10:12:50Z</time>
      </trkpt>
      <trkpt lat="46.15144" lon="3.45577">
        <ele>337.05</ele>
        <time>2017-12-29T10:12:56Z</time>
      </trkpt>
      <trkpt lat="46.15125" lon="3.45568">
        <ele>332.77</ele>
        <time>2017-12-29T10:13:02Z</time>
      </trkpt>
      <trkpt lat="46.15107" lon="3.45564">
        <ele>334.75</ele>
        <time>2017-12-29T10:13:08Z</time>
      </trkpt>
      <trkpt lat="46.15089" lon="3.4556">
        <ele>339.13</ele>
        <time>2017-12-29T10:13:15Z</time>
      </trkpt>
      <trkpt lat="46.15069" lon="3.45549">
        <ele>335.75</ele>
        <time>2017-12-29T10:13:24Z</time>
      </trkpt>
      <trkpt lat="46.15051" lon="3.45536">
        <ele>330.51</ele>
        <time>2017-12-29T10:13:30Z</time>
      </trkpt>
      <trkpt lat="46.15035" lon="3.45521">
        <ele>330.79</ele>
        <time>2017-12-29T10:13:36Z</time>
      </trkpt>
      <trkpt lat="46.1502" lon="3.45501">
        <ele>332.47</ele>
        <time>2017-12-29T10:13:43Z</time>
      </trkpt>
      <trkpt lat="46.15009" lon="3.4548">
        <ele>331.83</ele>
        <time>2017-12-29T10:13:51Z</time>
      </trkpt>
      <trkpt lat="46.14998" lon="3.45456">
        <ele>331.37</ele>
        <time>2017-12-29T10:13:57Z</time>
      </trkpt>
      <trkpt lat="46.14993" lon="3.45428">
        <ele>334.49</ele>
        <time>2017-12-29T10:14:07Z</time>
      </trkpt>
      <trkpt lat="46.1499" lon="3.454">
        <ele>338.43</ele>
        <time>2017-12-29T10:14:15Z</time>
      </trkpt>
      <trkpt lat="46.14985" lon="3.45374">
        <ele>343.24</ele>
        <time>2017-12-29T10:14:24Z</time>
      </trkpt>
      <trkpt lat="46.14978" lon="3.45346">
        <ele>344.46</ele>
        <time>2017-12-29T10:14:34Z</time>
      </trkpt>
      <trkpt lat="46.14974" lon="3.45319">
        <ele>342.29</ele>
        <time>2017-12-29T10:14:42Z</time>
      </trkpt>
      <trkpt lat="46.14975" lon="3.45293">
        <ele>353.45</ele>
        <time>2017-12-29T10:14:50Z</time>
      </trkpt>
      <trkpt lat="46.14978" lon="3.45263">
        <ele>344.97</ele>
        <time>2017-12-29T10:14:56Z</time>
      </trkpt>
      <trkpt lat="46.14976" lon="3.45236">
        <ele>340.52</ele>
        <time>2017-12-29T10:15:03Z</time>
      </trkpt>
      <trkpt lat="46.14974" lon="3.45207">
        <ele>338.15</ele>
        <time>2017-12-29T10:15:10Z</time>
      </trkpt>
      <trkpt lat="46.14968" lon="3.4518">
        <ele>339.79</ele>
        <time>2017-12-29T10:15:18Z</time>
      </trkpt>
      <trkpt lat="46.14969" lon="3.45151">
        <ele>337.55</ele>
        <time>2017-12-29T10:15:25Z</time>
      </trkpt>
      <trkpt lat="46.14969" lon="3.45121">
        <ele>333.56</ele>
        <time>2017-12-29T10:15:32Z</time>
      </trkpt>
      <trkpt lat="46.14959" lon="3.45095">
        <ele>335.48</ele>
        <time>2017-12-29T10:15:38Z</time>
      </trkpt>
      <trkpt lat="46.14943" lon="3.45082">
        <ele>331.95</ele>
        <time>2017-12-29T10:15:43Z</time>
      </trkpt>
      <trkpt lat="46.14924" lon="3.45085">
        <ele>328.67</ele>
        <time>2017-12-29T10:15:50Z</time>
      </trkpt>
      <trkpt lat="46.14905" lon="3.45093">
        <ele>329.62</ele>
        <time>2017-12-29T10:15:58Z</time>
      </trkpt>
      <trkpt lat="46.14895" lon="3.45117">
        <ele>327.65</ele>
        <time>2017-12-29T10:16:05Z</time>
      </trkpt>
      <trkpt lat="46.1489" lon="3.45143">
        <ele>324.89</ele>
        <time>2017-12-29T10:16:10Z</time>
      </trkpt>
      <trkpt lat="46.1488" lon="3.45169">
        <ele>322.61</ele>
        <time>2017-12-29T10:16:16Z</time>
      </trkpt>
      <trkpt lat="46.14875" lon="3.45195">
        <ele>316.65</ele>
        <time>2017-12-29T10:16:21Z</time>
      </trkpt>
      <trkpt lat="46.14875" lon="3.45223">
        <ele>314.64</ele>
        <time>2017-12-29T10:16:27Z</time>
      </trkpt>
      <trkpt lat="46.14866" lon="3.45248">
        <ele>319.19</ele>
        <time>2017-12-29T10:16:36Z</time>
      </trkpt>
      <trkpt lat="46.14847" lon="3.45253">
        <ele>319.31</ele>
        <time>2017-12-29T10:16:45Z</time>
      </trkpt>
      <trkpt lat="46.14831" lon="3.45267">
        <ele>319.84</ele>
        <time>2017-12-29T10:16:52Z</time>
      </trkpt>
      <trkpt lat="46.14812" lon="3.45273">
        <ele>322.45</ele>
        <time>2017-12-29T10:17:00Z</time>
      </trkpt>
      <trkpt lat="46.14793" lon="3.45277">
        <ele>322.55</ele>
        <time>2017-12-29T10:17:07Z</time>
      </trkpt>
      <trkpt lat="46.14774" lon="3.4527">
        <ele>322.29</ele>
        <time>2017-12-29T10:17:13Z</time>
      </trkpt>
      <trkpt lat="46.14754" lon="3.45261">
        <ele>321.92</ele>
        <time>2017-12-29T10:17:20Z</time>
      </trkpt>
      <trkpt lat="46.14736" lon="3.45251">
        <ele>322.75</ele>
        <time>2017-12-29T10:17:27Z</time>
      </trkpt>
      <trkpt lat="46.14716" lon="3.45245">
        <ele>324.83</ele>
        <time>2017-12-29T10:17:35Z</time>
      </trkpt>
      <trkpt lat="46.14696" lon="3.45245">
        <ele>322.86</ele>
        <time>2017-12-29T10:17:43Z</time>
      </trkpt>
      <trkpt lat="46.14678" lon="3.45245">
        <ele>319.84</ele>
        <time>2017-12-29T10:17:48Z</time>
      </trkpt>
      <trkpt lat="46.14657" lon="3.45251">
        <ele>318.94</ele>
        <time>2017-12-29T10:17:55Z</time>
      </trkpt>
      <trkpt lat="46.14639" lon="3.45254">
        <ele>315.65</ele>
        <time>2017-12-29T10:18:02Z</time>
      </trkpt>
      <trkpt lat="46.1462" lon="3.4526">
        <ele>313.59</ele>
        <time>2017-12-29T10:18:09Z</time>
      </trkpt>
      <trkpt lat="46.14602" lon="3.45264">
        <ele>313.36</ele>
        <time>2017-12-29T10:18:18Z</time>
      </trkpt>
      <trkpt lat="46.14583" lon="3.45267">
        <ele>316.25</ele>
        <time>2017-12-29T10:18:27Z</time>
      </trkpt>
      <trkpt lat="46.14566" lon="3.45257">
        <ele>316.86</ele>
        <time>2017-12-29T10:18:34Z</time>
      </trkpt>
      <trkpt lat="46.14553" lon="3.45233">
        <ele>314.57</ele>
        <time>2017-12-29T10:18:43Z</time>
      </trkpt>
      <trkpt lat="46.14545" lon="3.45209">
        <ele>313.84</ele>
        <time>2017-12-29T10:18:49Z</time>
      </trkpt>
      <trkpt lat="46.14536" lon="3.45186">
        <ele>313.55</ele>
        <time>2017-12-29T10:18:55Z</time>
      </trkpt>
      <trkpt lat="46.1453" lon="3.45159">
        <ele>313.34</ele>
        <time>2017-12-29T10:19:03Z</time>
      </trkpt>
      <trkpt lat="46.14522" lon="3.45135">
        <ele>310.67</ele>
        <time>2017-12-29T10:19:09Z</time>
      </trkpt>
      <trkpt lat="46.14533" lon="3.45111">
        <ele>309.55</ele>
        <time>2017-12-29T10:19:17Z</time>
      </trkpt>
      <trkpt lat="46.1455" lon="3.45099">
        <ele>311.53</ele>
        <time>2017-12-29T10:19:25Z</time>
      </trkpt>
      <trkpt lat="46.14568" lon="3.45087">
        <ele>316.24</ele>
        <time>2017-12-29T10:19:34Z</time>
      </trkpt>
      <trkpt lat="46.14584" lon="3.45073">
        <ele>316.49</ele>
        <time>2017-12-29T10:19:42Z</time>
      </trkpt>
      <trkpt lat="46.14598" lon="3.45056">
        <ele>317.49</ele>
        <time>2017-12-29T10:19:50Z</time>
      </trkpt>
      <trkpt lat="46.14613" lon="3.45039">
        <ele>323.18</ele>
        <time>2017-12-29T10:20:00Z</time>
      </trkpt>
      <trkpt lat="46.1463" lon="3.45026">
        <ele>327.16</ele>
        <time>2017-12-29T10:20:08Z</time>
      </trkpt>
      <trkpt lat="46.14649" lon="3.45019">
        <ele>327.55</ele>
        <time>2017-12-29T10:20:16Z</time>
      </trkpt>
      <trkpt lat="46.14667" lon="3.45016">
        <ele>330.46</ele>
        <time>2017-12-29T10:20:25Z</time>
      </trkpt>
      <trkpt lat="46.14688" lon="3.45017">
        <ele>332.46</ele>
        <time>2017-12-29T10:20:34Z</time>
      </trkpt>
      <trkpt lat="46.14706" lon="3.4502">
        <ele>336.45</ele>
        <time>2017-12-29T10:20:42Z</time>
      </trkpt>
      <trkpt lat="46.14725" lon="3.45024">
        <ele>335.33</ele>
        <time>2017-12-29T10:20:50Z</time>
      </trkpt>
      <trkpt lat="46.14743" lon="3.4503">
        <ele>338.23</ele>
        <time>2017-12-29T10:20:58Z</time>
      </trkpt>
      <trkpt lat="46.14763" lon="3.45033">
        <ele>341.23</ele>
        <time>2017-12-29T10:21:06Z</time>
      </trkpt>
      <trkpt lat="46.14778" lon="3.45018">
        <ele>344.52</ele>
        <time>2017-12-29T10:21:15Z</time>
      </trkpt>
      <trkpt lat="46.14782" lon="3.44991">
        <ele>343.83</ele>
        <time>2017-12-29T10:21:23Z</time>
      </trkpt>
      <trkpt lat="46.14786" lon="3.44966">
        <ele>343.55</ele>
        <time>2017-12-29T10:21:31Z</time>
      </trkpt>
      <trkpt lat="46.1479" lon="3.44938">
        <ele>346.23</ele>
        <time>2017-12-29T10:21:40Z</time>
      </trkpt>
      <trkpt lat="46.14799" lon="3.44916">
        <ele>349.5</ele>
        <time>2017-12-29T10:21:48Z</time>
      </trkpt>
      <trkpt lat="46.14811" lon="3.44894">
        <ele>352.81</ele>
        <time>2017-12-29T10:21:58Z</time>
      </trkpt>
      <trkpt lat="46.14821" lon="3.4487">
        <ele>356.14</ele>
        <time>2017-12-29T10:22:09Z</time>
      </trkpt>
      <trkpt lat="46.14829" lon="3.44843">
        <ele>360.44</ele>
        <time>2017-12-29T10:22:19Z</time>
      </trkpt>
      <trkpt lat="46.1484" lon="3.44818">
        <ele>362.85</ele>
        <time>2017-12-29T10:22:30Z</time>
      </trkpt>
      <trkpt lat="46.14857" lon="3.44803">
        <ele>359.86</ele>
        <time>2017-12-29T10:22:40Z</time>
      </trkpt>
      <trkpt lat="46.14877" lon="3.44797">
        <ele>358.48</ele>
        <time>2017-12-29T10:22:48Z</time>
      </trkpt>
      <trkpt lat="46.14897" lon="3.44799">
        <ele>357.55</ele>
        <time>2017-12-29T10:22:56Z</time>
      </trkpt>
      <trkpt lat="46.14917" lon="3.44804">
        <ele>360.45</ele>
        <time>2017-12-29T10:23:04Z</time>
      </trkpt>
      <trkpt lat="46.14936" lon="3.44805">
        <ele>362.54</ele>
        <time>2017-12-29T10:23:12Z</time>
      </trkpt>
      <trkpt lat="46.14955" lon="3.44801">
        <ele>367.52</ele>
        <time>2017-12-29T10:23:21Z</time>
      </trkpt>
      <trkpt lat="46.14974" lon="3.44796">
        <ele>365.73</ele>
        <time>2017-12-29T10:23:30Z</time>
      </trkpt>
      <trkpt lat="46.14992" lon="3.44792">
        <ele>369.15</ele>
        <time>2017-12-29T10:23:38Z</time>
      </trkpt>
      <trkpt lat="46.15012" lon="3.44788">
        <ele>368.72</ele>
        <time>2017-12-29T10:23:46Z</time>
      </trkpt>
      <trkpt lat="46.1503" lon="3.44784">
        <ele>372.23</ele>
        <time>2017-12-29T10:23:54Z</time>
      </trkpt>
      <trkpt lat="46.15049" lon="3.44783">
        <ele>375.24</ele>
        <time>2017-12-29T10:24:03Z</time>
      </trkpt>
      <trkpt lat="46.15067" lon="3.44781">
        <ele>374.55</ele>
        <time>2017-12-29T10:24:11Z</time>
      </trkpt>
      <trkpt lat="46.15087" lon="3.4478">
        <ele>374.54</ele>
        <time>2017-12-29T10:24:19Z</time>
      </trkpt>
      <trkpt lat="46.15106" lon="3.44783">
        <ele>375.55</ele>
        <time>2017-12-29T10:24:27Z</time>
      </trkpt>
      <trkpt lat="46.15125" lon="3.44786">
        <ele>376.46</ele>
        <time>2017-12-29T10:24:34Z</time>
      </trkpt>
      <trkpt lat="46.15145" lon="3.44791">
        <ele>379.45</ele>
        <time>2017-12-29T10:24:42Z</time>
      </trkpt>
      <trkpt lat="46.15164" lon="3.44799">
        <ele>381.54</ele>
        <time>2017-12-29T10:24:50Z</time>
      </trkpt>
      <trkpt lat="46.15182" lon="3.4481">
        <ele>385.86</ele>
        <time>2017-12-29T10:24:58Z</time>
      </trkpt>
      <trkpt lat="46.15198" lon="3.44822">
        <ele>385.43</ele>
        <time>2017-12-29T10:25:05Z</time>
      </trkpt>
      <trkpt lat="46.15214" lon="3.44834">
        <ele>385.85</ele>
        <time>2017-12-29T10:25:12Z</time>
      </trkpt>
      <trkpt lat="46.15233" lon="3.44841">
        <ele>386.23</ele>
        <time>2017-12-29T10:25:20Z</time>
      </trkpt>
      <trkpt lat="46.15251" lon="3.44847">
        <ele>389.22</ele>
        <time>2017-12-29T10:25:27Z</time>
      </trkpt>
      <trkpt lat="46.15271" lon="3.44853">
        <ele>388.67</ele>
        <time>2017-12-29T10:25:34Z</time>
      </trkpt>
      <trkpt lat="46.15289" lon="3.44857">
        <ele>389.28</ele>
        <time>2017-12-29T10:25:41Z</time>
      </trkpt>
      <trkpt lat="46.1531" lon="3.4486">
        <ele>391.25</ele>
        <time>2017-12-29T10:25:49Z</time>
      </trkpt>
      <trkpt lat="46.15328" lon="3.44858">
        <ele>392.62</ele>
        <time>2017-12-29T10:25:56Z</time>
      </trkpt>
      <trkpt lat="46.15346" lon="3.44852">
        <ele>394.26</ele>
        <time>2017-12-29T10:26:03Z</time>
      </trkpt>
      <trkpt lat="46.15364" lon="3.44845">
        <ele>395.76</ele>
        <time>2017-12-29T10:26:10Z</time>
      </trkpt>
      <trkpt lat="46.15383" lon="3.44842">
        <ele>392.15</ele>
        <time>2017-12-29T10:26:17Z</time>
      </trkpt>
      <trkpt lat="46.15402" lon="3.44846">
        <ele>391.46</ele>
        <time>2017-12-29T10:26:25Z</time>
      </trkpt>
      <trkpt lat="46.1542" lon="3.44854">
        <ele>389.11</ele>
        <time>2017-12-29T10:26:32Z</time>
      </trkpt>
      <trkpt lat="46.15437" lon="3.44865">
        <ele>387.66</ele>
        <time>2017-12-29T10:26:38Z</time>
      </trkpt>
      <trkpt lat="46.15451" lon="3.44884">
        <ele>384.44</ele>
        <time>2017-12-29T10:26:46Z</time>
      </trkpt>
      <trkpt lat="46.15467" lon="3.44902">
        <ele>382.77</ele>
        <time>2017-12-29T10:26:54Z</time>
      </trkpt>
      <trkpt lat="46.15477" lon="3.44924">
        <ele>373.47</ele>
        <time>2017-12-29T10:27:01Z</time>
      </trkpt>
      <trkpt lat="46.15493" lon="3.44941">
        <ele>382.66</ele>
        <time>2017-12-29T10:27:08Z</time>
      </trkpt>
      <trkpt lat="46.15512" lon="3.44956">
        <ele>376.97</ele>
        <time>2017-12-29T10:27:14Z</time>
      </trkpt>
      <trkpt lat="46.1553" lon="3.44966">
        <ele>375.53</ele>
        <time>2017-12-29T10:27:21Z</time>
      </trkpt>
      <trkpt lat="46.15546" lon="3.44954">
        <ele>375.85</ele>
        <time>2017-12-29T10:27:28Z</time>
      </trkpt>
      <trkpt lat="46.15563" lon="3.44942">
        <ele>372.58</ele>
        <time>2017-12-29T10:27:33Z</time>
      </trkpt>
      <trkpt lat="46.15581" lon="3.44933">
        <ele>374.7</ele>
        <time>2017-12-29T10:27:40Z</time>
      </trkpt>
      <trkpt lat="46.15598" lon="3.44923">
        <ele>375.28</ele>
        <time>2017-12-29T10:27:48Z</time>
      </trkpt>
      <trkpt lat="46.15616" lon="3.44913">
        <ele>378.25</ele>
        <time>2017-12-29T10:27:57Z</time>
      </trkpt>
      <trkpt lat="46.15629" lon="3.4489">
        <ele>377.86</ele>
        <time>2017-12-29T10:28:08Z</time>
      </trkpt>
      <trkpt lat="46.15637" lon="3.44867">
        <ele>376.29</ele>
        <time>2017-12-29T10:28:18Z</time>
      </trkpt>
      <trkpt lat="46.15648" lon="3.44841">
        <ele>381.75</ele>
        <time>2017-12-29T10:28:25Z</time>
      </trkpt>
      <trkpt lat="46.15667" lon="3.4483">
        <ele>382.46</ele>
        <time>2017-12-29T10:28:33Z</time>
      </trkpt>
      <trkpt lat="46.15685" lon="3.44817">
        <ele>385.45</ele>
        <time>2017-12-29T10:28:41Z</time>
      </trkpt>
      <trkpt lat="46.15704" lon="3.44811">
        <ele>387.46</ele>
        <time>2017-12-29T10:28:49Z</time>
      </trkpt>
      <trkpt lat="46.15723" lon="3.44804">
        <ele>388.76</ele>
        <time>2017-12-29T10:28:57Z</time>
      </trkpt>
      <trkpt lat="46.15743" lon="3.44799">
        <ele>390.82</ele>
        <time>2017-12-29T10:29:05Z</time>
      </trkpt>
      <trkpt lat="46.15761" lon="3.44793">
        <ele>393.46</ele>
        <time>2017-12-29T10:29:13Z</time>
      </trkpt>
      <trkpt lat="46.15779" lon="3.44786">
        <ele>395.55</ele>
        <time>2017-12-29T10:29:20Z</time>
      </trkpt>
      <trkpt lat="46.15799" lon="3.44771">
        <ele>398.45</ele>
        <time>2017-12-29T10:29:28Z</time>
      </trkpt>
      <trkpt lat="46.15816" lon="3.44759">
        <ele>396.83</ele>
        <time>2017-12-29T10:29:34Z</time>
      </trkpt>
      <trkpt lat="46.15819" lon="3.4473">
        <ele>399.17</ele>
        <time>2017-12-29T10:29:44Z</time>
      </trkpt>
      <trkpt lat="46.15816" lon="3.44703">
        <ele>399.64</ele>
        <time>2017-12-29T10:29:52Z</time>
      </trkpt>
      <trkpt lat="46.15814" lon="3.44673">
        <ele>399.79</ele>
        <time>2017-12-29T10:29:59Z</time>
      </trkpt>
      <trkpt lat="46.15812" lon="3.44645">
        <ele>396.87</ele>
        <time>2017-12-29T10:30:06Z</time>
      </trkpt>
      <trkpt lat="46.1581" lon="3.44619">
        <ele>394.57</ele>
        <time>2017-12-29T10:30:12Z</time>
      </trkpt>
      <trkpt lat="46.15809" lon="3.4459">
        <ele>394.55</ele>
        <time>2017-12-29T10:30:19Z</time>
      </trkpt>
      <trkpt lat="46.15808" lon="3.44561">
        <ele>394.55</ele>
        <time>2017-12-29T10:30:26Z</time>
      </trkpt>
      <trkpt lat="46.15806" lon="3.44531">
        <ele>394.58</ele>
        <time>2017-12-29T10:30:33Z</time>
      </trkpt>
      <trkpt lat="46.15809" lon="3.44505">
        <ele>394.62</ele>
        <time>2017-12-29T10:30:40Z</time>
      </trkpt>
      <trkpt lat="46.1581" lon="3.44477">
        <ele>392.56</ele>
        <time>2017-12-29T10:30:47Z</time>
      </trkpt>
      <trkpt lat="46.15814" lon="3.4445">
        <ele>390.88</ele>
        <time>2017-12-29T10:30:54Z</time>
      </trkpt>
      <trkpt lat="46.15823" lon="3.44424">
        <ele>389.44</ele>
        <time>2017-12-29T10:31:00Z</time>
      </trkpt>
      <trkpt lat="46.15837" lon="3.44401">
        <ele>386.86</ele>
        <time>2017-12-29T10:31:07Z</time>
      </trkpt>
      <trkpt lat="46.1585" lon="3.44379">
        <ele>383.73</ele>
        <time>2017-12-29T10:31:13Z</time>
      </trkpt>
      <trkpt lat="46.15866" lon="3.44366">
        <ele>383.25</ele>
        <time>2017-12-29T10:31:20Z</time>
      </trkpt>
      <trkpt lat="46.1588" lon="3.44348">
        <ele>381.94</ele>
        <time>2017-12-29T10:31:27Z</time>
      </trkpt>
      <trkpt lat="46.15896" lon="3.4433">
        <ele>373.7</ele>
        <time>2017-12-29T10:31:33Z</time>
      </trkpt>
      <trkpt lat="46.15895" lon="3.44303">
        <ele>372.47</ele>
        <time>2017-12-29T10:31:42Z</time>
      </trkpt>
      <trkpt lat="46.15885" lon="3.44281">
        <ele>373.44</ele>
        <time>2017-12-29T10:31:48Z</time>
      </trkpt>
      <trkpt lat="46.15878" lon="3.44255">
        <ele>371.73</ele>
        <time>2017-12-29T10:31:54Z</time>
      </trkpt>
      <trkpt lat="46.15876" lon="3.44225">
        <ele>368.59</ele>
        <time>2017-12-29T10:32:01Z</time>
      </trkpt>
      <trkpt lat="46.1588" lon="3.44198">
        <ele>365.64</ele>
        <time>2017-12-29T10:32:08Z</time>
      </trkpt>
      <trkpt lat="46.15879" lon="3.44172">
        <ele>363.16</ele>
        <time>2017-12-29T10:32:16Z</time>
      </trkpt>
      <trkpt lat="46.15881" lon="3.44145">
        <ele>358.68</ele>
        <time>2017-12-29T10:32:23Z</time>
      </trkpt>
      <trkpt lat="46.15882" lon="3.44118">
        <ele>357.56</ele>
        <time>2017-12-29T10:32:30Z</time>
      </trkpt>
      <trkpt lat="46.15886" lon="3.44087">
        <ele>353.8</ele>
        <time>2017-12-29T10:32:38Z</time>
      </trkpt>
      <trkpt lat="46.15893" lon="3.44059">
        <ele>352.78</ele>
        <time>2017-12-29T10:32:46Z</time>
      </trkpt>
      <trkpt lat="46.159" lon="3.44033">
        <ele>356.9</ele>
        <time>2017-12-29T10:32:55Z</time>
      </trkpt>
      <trkpt lat="46.15905" lon="3.44007">
        <ele>360.22</ele>
        <time>2017-12-29T10:33:04Z</time>
      </trkpt>
      <trkpt lat="46.15912" lon="3.43981">
        <ele>366.46</ele>
        <time>2017-12-29T10:33:15Z</time>
      </trkpt>
      <trkpt lat="46.1592" lon="3.43958">
        <ele>371.52</ele>
        <time>2017-12-29T10:33:26Z</time>
      </trkpt>
      <trkpt lat="46.15923" lon="3.43931">
        <ele>379.16</ele>
        <time>2017-12-29T10:33:37Z</time>
      </trkpt>
      <trkpt lat="46.15926" lon="3.43903">
        <ele>378.46</ele>
        <time>2017-12-29T10:33:46Z</time>
      </trkpt>
      <trkpt lat="46.15935" lon="3.4388">
        <ele>380.52</ele>
        <time>2017-12-29T10:33:56Z</time>
      </trkpt>
      <trkpt lat="46.15953" lon="3.43877">
        <ele>377.97</ele>
        <time>2017-12-29T10:34:06Z</time>
      </trkpt>
      <trkpt lat="46.15969" lon="3.43892">
        <ele>377.94</ele>
        <time>2017-12-29T10:34:14Z</time>
      </trkpt>
      <trkpt lat="46.15986" lon="3.43907">
        <ele>377.64</ele>
        <time>2017-12-29T10:34:21Z</time>
      </trkpt>
      <trkpt lat="46.16001" lon="3.43925">
        <ele>380.75</ele>
        <time>2017-12-29T10:34:29Z</time>
      </trkpt>
      <trkpt lat="46.16017" lon="3.43941">
        <ele>378.97</ele>
        <time>2017-12-29T10:34:36Z</time>
      </trkpt>
      <trkpt lat="46.16034" lon="3.43957">
        <ele>377.56</ele>
        <time>2017-12-29T10:34:44Z</time>
      </trkpt>
      <trkpt lat="46.16052" lon="3.43969">
        <ele>376.3</ele>
        <time>2017-12-29T10:34:51Z</time>
      </trkpt>
      <trkpt lat="46.1607" lon="3.43985">
        <ele>377.37</ele>
        <time>2017-12-29T10:34:58Z</time>
      </trkpt>
      <trkpt lat="46.16084" lon="3.44004">
        <ele>379.49</ele>
        <time>2017-12-29T10:35:05Z</time>
      </trkpt>
      <trkpt lat="46.16099" lon="3.44024">
        <ele>378.56</ele>
        <time>2017-12-29T10:35:12Z</time>
      </trkpt>
      <trkpt lat="46.16112" lon="3.44042">
        <ele>378.62</ele>
        <time>2017-12-29T10:35:18Z</time>
      </trkpt>
      <trkpt lat="46.16126" lon="3.44061">
        <ele>378.54</ele>
        <time>2017-12-29T10:35:24Z</time>
      </trkpt>
      <trkpt lat="46.16141" lon="3.44082">
        <ele>377.55</ele>
        <time>2017-12-29T10:35:31Z</time>
      </trkpt>
      <trkpt lat="46.16156" lon="3.44103">
        <ele>376.53</ele>
        <time>2017-12-29T10:35:39Z</time>
      </trkpt>
      <trkpt lat="46.16169" lon="3.44123">
        <ele>376.55</ele>
        <time>2017-12-29T10:35:46Z</time>
      </trkpt>
      <trkpt lat="46.16181" lon="3.44144">
        <ele>378.03</ele>
        <time>2017-12-29T10:35:53Z</time>
      </trkpt>
      <trkpt lat="46.16193" lon="3.44166">
        <ele>379.64</ele>
        <time>2017-12-29T10:36:00Z</time>
      </trkpt>
      <trkpt lat="46.16206" lon="3.44186">
        <ele>378.86</ele>
        <time>2017-12-29T10:36:06Z</time>
      </trkpt>
      <trkpt lat="46.16217" lon="3.44208">
        <ele>377.56</ele>
        <time>2017-12-29T10:36:12Z</time>
      </trkpt>
      <trkpt lat="46.16221" lon="3.44233">
        <ele>378</ele>
        <time>2017-12-29T10:36:19Z</time>
      </trkpt>
      <trkpt lat="46.16231" lon="3.44257">
        <ele>376.64</ele>
        <time>2017-12-29T10:36:25Z</time>
      </trkpt>
      <trkpt lat="46.16236" lon="3.44285">
        <ele>376.27</ele>
        <time>2017-12-29T10:36:32Z</time>
      </trkpt>
      <trkpt lat="46.16237" lon="3.44311">
        <ele>377.35</ele>
        <time>2017-12-29T10:36:39Z</time>
      </trkpt>
      <trkpt lat="46.16236" lon="3.4434">
        <ele>382.34</ele>
        <time>2017-12-29T10:36:47Z</time>
      </trkpt>
      <trkpt lat="46.16241" lon="3.44368">
        <ele>382.84</ele>
        <time>2017-12-29T10:36:54Z</time>
      </trkpt>
      <trkpt lat="46.16245" lon="3.44395">
        <ele>383.47</ele>
        <time>2017-12-29T10:37:01Z</time>
      </trkpt>
      <trkpt lat="46.16254" lon="3.44422">
        <ele>379.6</ele>
        <time>2017-12-29T10:37:08Z</time>
      </trkpt>
      <trkpt lat="46.16263" lon="3.44446">
        <ele>381.54</ele>
        <time>2017-12-29T10:37:15Z</time>
      </trkpt>
      <trkpt lat="46.16272" lon="3.44469">
        <ele>381.55</ele>
        <time>2017-12-29T10:37:22Z</time>
      </trkpt>
      <trkpt lat="46.16284" lon="3.44492">
        <ele>383.55</ele>
        <time>2017-12-29T10:37:30Z</time>
      </trkpt>
      <trkpt lat="46.16298" lon="3.44511">
        <ele>383.55</ele>
        <time>2017-12-29T10:37:37Z</time>
      </trkpt>
      <trkpt lat="46.16312" lon="3.44528">
        <ele>384.28</ele>
        <time>2017-12-29T10:37:44Z</time>
      </trkpt>
      <trkpt lat="46.16328" lon="3.44544">
        <ele>385.55</ele>
        <time>2017-12-29T10:37:52Z</time>
      </trkpt>
      <trkpt lat="46.16343" lon="3.4456">
        <ele>385.49</ele>
        <time>2017-12-29T10:37:59Z</time>
      </trkpt>
      <trkpt lat="46.16358" lon="3.44575">
        <ele>385.26</ele>
        <time>2017-12-29T10:38:06Z</time>
      </trkpt>
      <trkpt lat="46.16376" lon="3.44586">
        <ele>385.55</ele>
        <time>2017-12-29T10:38:13Z</time>
      </trkpt>
      <trkpt lat="46.16392" lon="3.446">
        <ele>385.64</ele>
        <time>2017-12-29T10:38:19Z</time>
      </trkpt>
      <trkpt lat="46.16407" lon="3.44615">
        <ele>384.56</ele>
        <time>2017-12-29T10:38:25Z</time>
      </trkpt>
      <trkpt lat="46.16423" lon="3.44629">
        <ele>385.53</ele>
        <time>2017-12-29T10:38:32Z</time>
      </trkpt>
      <trkpt lat="46.16443" lon="3.44636">
        <ele>386.54</ele>
        <time>2017-12-29T10:38:40Z</time>
      </trkpt>
      <trkpt lat="46.16463" lon="3.44636">
        <ele>386.55</ele>
        <time>2017-12-29T10:38:47Z</time>
      </trkpt>
      <trkpt lat="46.16483" lon="3.44635">
        <ele>387.46</ele>
        <time>2017-12-29T10:38:54Z</time>
      </trkpt>
      <trkpt lat="46.16501" lon="3.44633">
        <ele>387.55</ele>
        <time>2017-12-29T10:39:01Z</time>
      </trkpt>
      <trkpt lat="46.16521" lon="3.44631">
        <ele>386.64</ele>
        <time>2017-12-29T10:39:08Z</time>
      </trkpt>
      <trkpt lat="46.1654" lon="3.44632">
        <ele>387.25</ele>
        <time>2017-12-29T10:39:15Z</time>
      </trkpt>
      <trkpt lat="46.1656" lon="3.44635">
        <ele>384.59</ele>
        <time>2017-12-29T10:39:22Z</time>
      </trkpt>
      <trkpt lat="46.16578" lon="3.44643">
        <ele>383.58</ele>
        <time>2017-12-29T10:39:29Z</time>
      </trkpt>
      <trkpt lat="46.16595" lon="3.44653">
        <ele>381.5</ele>
        <time>2017-12-29T10:39:36Z</time>
      </trkpt>
      <trkpt lat="46.16613" lon="3.44664">
        <ele>378.48</ele>
        <time>2017-12-29T10:39:43Z</time>
      </trkpt>
      <trkpt lat="46.16627" lon="3.44685">
        <ele>377.41</ele>
        <time>2017-12-29T10:39:51Z</time>
      </trkpt>
      <trkpt lat="46.1664" lon="3.44707">
        <ele>373.14</ele>
        <time>2017-12-29T10:39:58Z</time>
      </trkpt>
      <trkpt lat="46.16654" lon="3.44724">
        <ele>367.65</ele>
        <time>2017-12-29T10:40:04Z</time>
      </trkpt>
      <trkpt lat="46.1667" lon="3.44739">
        <ele>376.91</ele>
        <time>2017-12-29T10:40:10Z</time>
      </trkpt>
      <trkpt lat="46.16689" lon="3.44749">
        <ele>367.29</ele>
        <time>2017-12-29T10:40:17Z</time>
      </trkpt>
      <trkpt lat="46.16707" lon="3.44762">
        <ele>362.94</ele>
        <time>2017-12-29T10:40:25Z</time>
      </trkpt>
      <trkpt lat="46.16723" lon="3.44742">
        <ele>362.4</ele>
        <time>2017-12-29T10:40:32Z</time>
      </trkpt>
      <trkpt lat="46.16735" lon="3.44721">
        <ele>359.87</ele>
        <time>2017-12-29T10:40:38Z</time>
      </trkpt>
      <trkpt lat="46.16748" lon="3.44702">
        <ele>352.59</ele>
        <time>2017-12-29T10:40:44Z</time>
      </trkpt>
      <trkpt lat="46.1676" lon="3.44678">
        <ele>352.11</ele>
        <time>2017-12-29T10:40:51Z</time>
      </trkpt>
      <trkpt lat="46.16768" lon="3.44653">
        <ele>348.65</ele>
        <time>2017-12-29T10:40:58Z</time>
      </trkpt>
      <trkpt lat="46.16769" lon="3.44626">
        <ele>351.53</ele>
        <time>2017-12-29T10:41:05Z</time>
      </trkpt>
      <trkpt lat="46.16777" lon="3.44602">
        <ele>353.32</ele>
        <time>2017-12-29T10:41:12Z</time>
      </trkpt>
      <trkpt lat="46.16789" lon="3.44582">
        <ele>356.45</ele>
        <time>2017-12-29T10:41:20Z</time>
      </trkpt>
      <trkpt lat="46.168" lon="3.44559">
        <ele>356.56</ele>
        <time>2017-12-29T10:41:27Z</time>
      </trkpt>
      <trkpt lat="46.16819" lon="3.44554">
        <ele>357.53</ele>
        <time>2017-12-29T10:41:38Z</time>
      </trkpt>
      <trkpt lat="46.16838" lon="3.44562">
        <ele>355.56</ele>
        <time>2017-12-29T10:41:45Z</time>
      </trkpt>
      <trkpt lat="46.16855" lon="3.44545">
        <ele>356.93</ele>
        <time>2017-12-29T10:41:54Z</time>
      </trkpt>
      <trkpt lat="46.16866" lon="3.44518">
        <ele>353.86</ele>
        <time>2017-12-29T10:42:01Z</time>
      </trkpt>
      <trkpt lat="46.16873" lon="3.44492">
        <ele>351.18</ele>
        <time>2017-12-29T10:42:08Z</time>
      </trkpt>
      <trkpt lat="46.16884" lon="3.4447">
        <ele>347.61</ele>
        <time>2017-12-29T10:42:15Z</time>
      </trkpt>
      <trkpt lat="46.16896" lon="3.44448">
        <ele>347.83</ele>
        <time>2017-12-29T10:42:21Z</time>
      </trkpt>
      <trkpt lat="46.16911" lon="3.44429">
        <ele>346.58</ele>
        <time>2017-12-29T10:42:28Z</time>
      </trkpt>
      <trkpt lat="46.16926" lon="3.44413">
        <ele>348.25</ele>
        <time>2017-12-29T10:42:35Z</time>
      </trkpt>
      <trkpt lat="46.16941" lon="3.44393">
        <ele>348.55</ele>
        <time>2017-12-29T10:42:42Z</time>
      </trkpt>
      <trkpt lat="46.16955" lon="3.44374">
        <ele>347.57</ele>
        <time>2017-12-29T10:42:50Z</time>
      </trkpt>
      <trkpt lat="46.16968" lon="3.44354">
        <ele>348.53</ele>
        <time>2017-12-29T10:42:57Z</time>
      </trkpt>
      <trkpt lat="46.16983" lon="3.44337">
        <ele>347.55</ele>
        <time>2017-12-29T10:43:03Z</time>
      </trkpt>
      <trkpt lat="46.16997" lon="3.44319">
        <ele>344.27</ele>
        <time>2017-12-29T10:43:09Z</time>
      </trkpt>
      <trkpt lat="46.17013" lon="3.44304">
        <ele>345.35</ele>
        <time>2017-12-29T10:43:17Z</time>
      </trkpt>
      <trkpt lat="46.17026" lon="3.44281">
        <ele>340.92</ele>
        <time>2017-12-29T10:43:23Z</time>
      </trkpt>
      <trkpt lat="46.17039" lon="3.44261">
        <ele>340.91</ele>
        <time>2017-12-29T10:43:30Z</time>
      </trkpt>
      <trkpt lat="46.17051" lon="3.4424">
        <ele>339.53</ele>
        <time>2017-12-29T10:43:37Z</time>
      </trkpt>
      <trkpt lat="46.1706" lon="3.44218">
        <ele>340.72</ele>
        <time>2017-12-29T10:43:44Z</time>
      </trkpt>
      <trkpt lat="46.17071" lon="3.44195">
        <ele>337.4</ele>
        <time>2017-12-29T10:43:50Z</time>
      </trkpt>
      <trkpt lat="46.1708" lon="3.4417">
        <ele>336.52</ele>
        <time>2017-12-29T10:43:57Z</time>
      </trkpt>
      <trkpt lat="46.17093" lon="3.4415">
        <ele>336.04</ele>
        <time>2017-12-29T10:44:03Z</time>
      </trkpt>
      <trkpt lat="46.1711" lon="3.44139">
        <ele>336.49</ele>
        <time>2017-12-29T10:44:11Z</time>
      </trkpt>
      <trkpt lat="46.1713" lon="3.4414">
        <ele>336.36</ele>
        <time>2017-12-29T10:44:18Z</time>
      </trkpt>
      <trkpt lat="46.1715" lon="3.44143">
        <ele>337.55</ele>
        <time>2017-12-29T10:44:26Z</time>
      </trkpt>
      <trkpt lat="46.17168" lon="3.44136">
        <ele>336.57</ele>
        <time>2017-12-29T10:44:33Z</time>
      </trkpt>
      <trkpt lat="46.17184" lon="3.44125">
        <ele>332.5</ele>
        <time>2017-12-29T10:44:39Z</time>
      </trkpt>
      <trkpt lat="46.17203" lon="3.44115">
        <ele>326.13</ele>
        <time>2017-12-29T10:44:45Z</time>
      </trkpt>
      <trkpt lat="46.17222" lon="3.4411">
        <ele>325.45</ele>
        <time>2017-12-29T10:44:53Z</time>
      </trkpt>
      <trkpt lat="46.17239" lon="3.44099">
        <ele>325.1</ele>
        <time>2017-12-29T10:45:01Z</time>
      </trkpt>
      <trkpt lat="46.17251" lon="3.4408">
        <ele>320.48</ele>
        <time>2017-12-29T10:45:08Z</time>
      </trkpt>
      <trkpt lat="46.17244" lon="3.44052">
        <ele>317.24</ele>
        <time>2017-12-29T10:45:16Z</time>
      </trkpt>
      <trkpt lat="46.17244" lon="3.44025">
        <ele>314.56</ele>
        <time>2017-12-29T10:45:22Z</time>
      </trkpt>
      <trkpt lat="46.17254" lon="3.44003">
        <ele>311.97</ele>
        <time>2017-12-29T10:45:28Z</time>
      </trkpt>
      <trkpt lat="46.17272" lon="3.43989">
        <ele>307.86</ele>
        <time>2017-12-29T10:45:36Z</time>
      </trkpt>
      <trkpt lat="46.17292" lon="3.43982">
        <ele>314.22</ele>
        <time>2017-12-29T10:45:45Z</time>
      </trkpt>
      <trkpt lat="46.1731" lon="3.43972">
        <ele>310.56</ele>
        <time>2017-12-29T10:45:51Z</time>
      </trkpt>
      <trkpt lat="46.17327" lon="3.43956">
        <ele>316.53</ele>
        <time>2017-12-29T10:45:59Z</time>
      </trkpt>
      <trkpt lat="46.17332" lon="3.43929">
        <ele>318.56</ele>
        <time>2017-12-29T10:46:07Z</time>
      </trkpt>
      <trkpt lat="46.1734" lon="3.43901">
        <ele>318.48</ele>
        <time>2017-12-29T10:46:14Z</time>
      </trkpt>
      <trkpt lat="46.1735" lon="3.43876">
        <ele>317.3</ele>
        <time>2017-12-29T10:46:21Z</time>
      </trkpt>
      <trkpt lat="46.17355" lon="3.43848">
        <ele>317.27</ele>
        <time>2017-12-29T10:46:29Z</time>
      </trkpt>
      <trkpt lat="46.17366" lon="3.43824">
        <ele>313.67</ele>
        <time>2017-12-29T10:46:37Z</time>
      </trkpt>
      <trkpt lat="46.17377" lon="3.43802">
        <ele>312.93</ele>
        <time>2017-12-29T10:46:47Z</time>
      </trkpt>
      <trkpt lat="46.17395" lon="3.43796">
        <ele>308.87</ele>
        <time>2017-12-29T10:46:55Z</time>
      </trkpt>
      <trkpt lat="46.17413" lon="3.43786">
        <ele>307.53</ele>
        <time>2017-12-29T10:47:03Z</time>
      </trkpt>
      <trkpt lat="46.17427" lon="3.43766">
        <ele>313.44</ele>
        <time>2017-12-29T10:47:12Z</time>
      </trkpt>
      <trkpt lat="46.17439" lon="3.43746">
        <ele>313.58</ele>
        <time>2017-12-29T10:47:19Z</time>
      </trkpt>
      <trkpt lat="46.17448" lon="3.43721">
        <ele>318.45</ele>
        <time>2017-12-29T10:47:29Z</time>
      </trkpt>
      <trkpt lat="46.17455" lon="3.43697">
        <ele>328.2</ele>
        <time>2017-12-29T10:47:40Z</time>
      </trkpt>
      <trkpt lat="46.17459" lon="3.43671">
        <ele>333.15</ele>
        <time>2017-12-29T10:47:50Z</time>
      </trkpt>
      <trkpt lat="46.1746" lon="3.43643">
        <ele>335.58</ele>
        <time>2017-12-29T10:48:01Z</time>
      </trkpt>
      <trkpt lat="46.17461" lon="3.43616">
        <ele>336.16</ele>
        <time>2017-12-29T10:48:09Z</time>
      </trkpt>
      <trkpt lat="46.17456" lon="3.43588">
        <ele>341.52</ele>
        <time>2017-12-29T10:48:20Z</time>
      </trkpt>
      <trkpt lat="46.17458" lon="3.43561">
        <ele>345.62</ele>
        <time>2017-12-29T10:48:31Z</time>
      </trkpt>
      <trkpt lat="46.17456" lon="3.43533">
        <ele>342.54</ele>
        <time>2017-12-29T10:48:39Z</time>
      </trkpt>
      <trkpt lat="46.17445" lon="3.43512">
        <ele>346.15</ele>
        <time>2017-12-29T10:48:45Z</time>
      </trkpt>
      <trkpt lat="46.17431" lon="3.43488">
        <ele>341.11</ele>
        <time>2017-12-29T10:48:50Z</time>
      </trkpt>
      <trkpt lat="46.17447" lon="3.43472">
        <ele>345.78</ele>
        <time>2017-12-29T10:49:00Z</time>
      </trkpt>
      <trkpt lat="46.17466" lon="3.43463">
        <ele>345.48</ele>
        <time>2017-12-29T10:49:08Z</time>
      </trkpt>
      <trkpt lat="46.17483" lon="3.43453">
        <ele>343.15</ele>
        <time>2017-12-29T10:49:14Z</time>
      </trkpt>
      <trkpt lat="46.17501" lon="3.43447">
        <ele>340.58</ele>
        <time>2017-12-29T10:49:20Z</time>
      </trkpt>
      <trkpt lat="46.17521" lon="3.43443">
        <ele>337.63</ele>
        <time>2017-12-29T10:49:27Z</time>
      </trkpt>
      <trkpt lat="46.17542" lon="3.43438">
        <ele>334.58</ele>
        <time>2017-12-29T10:49:34Z</time>
      </trkpt>
      <trkpt lat="46.17561" lon="3.43437">
        <ele>333.58</ele>
        <time>2017-12-29T10:49:41Z</time>
      </trkpt>
      <trkpt lat="46.1758" lon="3.43434">
        <ele>333.58</ele>
        <time>2017-12-29T10:49:48Z</time>
      </trkpt>
      <trkpt lat="46.17599" lon="3.4343">
        <ele>333.56</ele>
        <time>2017-12-29T10:49:55Z</time>
      </trkpt>
      <trkpt lat="46.17619" lon="3.43426">
        <ele>333.85</ele>
        <time>2017-12-29T10:50:02Z</time>
      </trkpt>
      <trkpt lat="46.17635" lon="3.4341">
        <ele>332.85</ele>
        <time>2017-12-29T10:50:07Z</time>
      </trkpt>
      <trkpt lat="46.17641" lon="3.43384">
        <ele>333.53</ele>
        <time>2017-12-29T10:50:13Z</time>
      </trkpt>
      <trkpt lat="46.17644" lon="3.43354">
        <ele>330.63</ele>
        <time>2017-12-29T10:50:20Z</time>
      </trkpt>
      <trkpt lat="46.17646" lon="3.43325">
        <ele>326.95</ele>
        <time>2017-12-29T10:50:27Z</time>
      </trkpt>
      <trkpt lat="46.17649" lon="3.43296">
        <ele>324.76</ele>
        <time>2017-12-29T10:50:33Z</time>
      </trkpt>
      <trkpt lat="46.17652" lon="3.43268">
        <ele>319.95</ele>
        <time>2017-12-29T10:50:40Z</time>
      </trkpt>
      <trkpt lat="46.17656" lon="3.43242">
        <ele>317.65</ele>
        <time>2017-12-29T10:50:46Z</time>
      </trkpt>
      <trkpt lat="46.17664" lon="3.43218">
        <ele>315.64</ele>
        <time>2017-12-29T10:50:52Z</time>
      </trkpt>
      <trkpt lat="46.17675" lon="3.43192">
        <ele>318.43</ele>
        <time>2017-12-29T10:50:59Z</time>
      </trkpt>
      <trkpt lat="46.17685" lon="3.4317">
        <ele>320.74</ele>
        <time>2017-12-29T10:51:06Z</time>
      </trkpt>
      <trkpt lat="46.17694" lon="3.43145">
        <ele>322.44</ele>
        <time>2017-12-29T10:51:13Z</time>
      </trkpt>
      <trkpt lat="46.17702" lon="3.43121">
        <ele>324.46</ele>
        <time>2017-12-29T10:51:20Z</time>
      </trkpt>
      <trkpt lat="46.17712" lon="3.43095">
        <ele>327.16</ele>
        <time>2017-12-29T10:51:28Z</time>
      </trkpt>
      <trkpt lat="46.17722" lon="3.43073">
        <ele>327.47</ele>
        <time>2017-12-29T10:51:35Z</time>
      </trkpt>
      <trkpt lat="46.17733" lon="3.43051">
        <ele>329.23</ele>
        <time>2017-12-29T10:51:42Z</time>
      </trkpt>
      <trkpt lat="46.17745" lon="3.43032">
        <ele>330.23</ele>
        <time>2017-12-29T10:51:50Z</time>
      </trkpt>
      <trkpt lat="46.1776" lon="3.43047">
        <ele>332.46</ele>
        <time>2017-12-29T10:51:58Z</time>
      </trkpt>
      <trkpt lat="46.17777" lon="3.43063">
        <ele>333.46</ele>
        <time>2017-12-29T10:52:06Z</time>
      </trkpt>
      <trkpt lat="46.17795" lon="3.43075">
        <ele>335.25</ele>
        <time>2017-12-29T10:52:14Z</time>
      </trkpt>
      <trkpt lat="46.17813" lon="3.43079">
        <ele>338.46</ele>
        <time>2017-12-29T10:52:22Z</time>
      </trkpt>
      <trkpt lat="46.17833" lon="3.43081">
        <ele>340.54</ele>
        <time>2017-12-29T10:52:30Z</time>
      </trkpt>
      <trkpt lat="46.17853" lon="3.43084">
        <ele>341.55</ele>
        <time>2017-12-29T10:52:38Z</time>
      </trkpt>
      <trkpt lat="46.17872" lon="3.43088">
        <ele>340.83</ele>
        <time>2017-12-29T10:52:45Z</time>
      </trkpt>
      <trkpt lat="46.17891" lon="3.43093">
        <ele>342.25</ele>
        <time>2017-12-29T10:52:52Z</time>
      </trkpt>
      <trkpt lat="46.1791" lon="3.43097">
        <ele>342.57</ele>
        <time>2017-12-29T10:52:59Z</time>
      </trkpt>
      <trkpt lat="46.17929" lon="3.43102">
        <ele>344.45</ele>
        <time>2017-12-29T10:53:06Z</time>
      </trkpt>
      <trkpt lat="46.17948" lon="3.43105">
        <ele>344.85</ele>
        <time>2017-12-29T10:53:13Z</time>
      </trkpt>
      <trkpt lat="46.17968" lon="3.43105">
        <ele>345.44</ele>
        <time>2017-12-29T10:53:20Z</time>
      </trkpt>
      <trkpt lat="46.17986" lon="3.43103">
        <ele>345.72</ele>
        <time>2017-12-29T10:53:27Z</time>
      </trkpt>
      <trkpt lat="46.18006" lon="3.43103">
        <ele>346.25</ele>
        <time>2017-12-29T10:53:35Z</time>
      </trkpt>
      <trkpt lat="46.18026" lon="3.43104">
        <ele>346.83</ele>
        <time>2017-12-29T10:53:42Z</time>
      </trkpt>
      <trkpt lat="46.18046" lon="3.4311">
        <ele>347.25</ele>
        <time>2017-12-29T10:53:49Z</time>
      </trkpt>
      <trkpt lat="46.18065" lon="3.43115">
        <ele>347.55</ele>
        <time>2017-12-29T10:53:56Z</time>
      </trkpt>
      <trkpt lat="46.18085" lon="3.43115">
        <ele>347.55</ele>
        <time>2017-12-29T10:54:03Z</time>
      </trkpt>
      <trkpt lat="46.18093" lon="3.4309">
        <ele>347.55</ele>
        <time>2017-12-29T10:54:09Z</time>
      </trkpt>
      <trkpt lat="46.18098" lon="3.43064">
        <ele>348.25</ele>
        <time>2017-12-29T10:54:17Z</time>
      </trkpt>
      <trkpt lat="46.18105" lon="3.43037">
        <ele>346.29</ele>
        <time>2017-12-29T10:54:23Z</time>
      </trkpt>
      <trkpt lat="46.18108" lon="3.43011">
        <ele>347.22</ele>
        <time>2017-12-29T10:54:29Z</time>
      </trkpt>
      <trkpt lat="46.18112" lon="3.42985">
        <ele>347.55</ele>
        <time>2017-12-29T10:54:35Z</time>
      </trkpt>
      <trkpt lat="46.18114" lon="3.42952">
        <ele>348.13</ele>
        <time>2017-12-29T10:54:43Z</time>
      </trkpt>
      <trkpt lat="46.18112" lon="3.42921">
        <ele>347.26</ele>
        <time>2017-12-29T10:54:49Z</time>
      </trkpt>
      <trkpt lat="46.18103" lon="3.42896">
        <ele>348.53</ele>
        <time>2017-12-29T10:54:57Z</time>
      </trkpt>
      <trkpt lat="46.18104" lon="3.42868">
        <ele>352.15</ele>
        <time>2017-12-29T10:55:04Z</time>
      </trkpt>
      <trkpt lat="46.18093" lon="3.42843">
        <ele>353.78</ele>
        <time>2017-12-29T10:55:12Z</time>
      </trkpt>
      <trkpt lat="46.18075" lon="3.42836">
        <ele>356.24</ele>
        <time>2017-12-29T10:55:20Z</time>
      </trkpt>
      <trkpt lat="46.18057" lon="3.42824">
        <ele>357.61</ele>
        <time>2017-12-29T10:55:27Z</time>
      </trkpt>
      <trkpt lat="46.18039" lon="3.42815">
        <ele>358.25</ele>
        <time>2017-12-29T10:55:34Z</time>
      </trkpt>
      <trkpt lat="46.18022" lon="3.42807">
        <ele>361.37</ele>
        <time>2017-12-29T10:55:42Z</time>
      </trkpt>
      <trkpt lat="46.18002" lon="3.42799">
        <ele>362.32</ele>
        <time>2017-12-29T10:55:49Z</time>
      </trkpt>
      <trkpt lat="46.17985" lon="3.42789">
        <ele>365.53</ele>
        <time>2017-12-29T10:55:57Z</time>
      </trkpt>
      <trkpt lat="46.17967" lon="3.42779">
        <ele>366.92</ele>
        <time>2017-12-29T10:56:04Z</time>
      </trkpt>
      <trkpt lat="46.17946" lon="3.42773">
        <ele>366.1</ele>
        <time>2017-12-29T10:56:12Z</time>
      </trkpt>
      <trkpt lat="46.17928" lon="3.42763">
        <ele>365.18</ele>
        <time>2017-12-29T10:56:20Z</time>
      </trkpt>
      <trkpt lat="46.17909" lon="3.42753">
        <ele>364.88</ele>
        <time>2017-12-29T10:56:27Z</time>
      </trkpt>
      <trkpt lat="46.17892" lon="3.42744">
        <ele>364.17</ele>
        <time>2017-12-29T10:56:33Z</time>
      </trkpt>
      <trkpt lat="46.17874" lon="3.42732">
        <ele>363.64</ele>
        <time>2017-12-29T10:56:40Z</time>
      </trkpt>
      <trkpt lat="46.17856" lon="3.42725">
        <ele>361.58</ele>
        <time>2017-12-29T10:56:45Z</time>
      </trkpt>
      <trkpt lat="46.17837" lon="3.42717">
        <ele>358.12</ele>
        <time>2017-12-29T10:56:51Z</time>
      </trkpt>
      <trkpt lat="46.17822" lon="3.42698">
        <ele>358.16</ele>
        <time>2017-12-29T10:56:58Z</time>
      </trkpt>
      <trkpt lat="46.17809" lon="3.4268">
        <ele>357.65</ele>
        <time>2017-12-29T10:57:05Z</time>
      </trkpt>
      <trkpt lat="46.17793" lon="3.42665">
        <ele>356.64</ele>
        <time>2017-12-29T10:57:11Z</time>
      </trkpt>
      <trkpt lat="46.17776" lon="3.42646">
        <ele>356.53</ele>
        <time>2017-12-29T10:57:18Z</time>
      </trkpt>
      <trkpt lat="46.17761" lon="3.42629">
        <ele>358.04</ele>
        <time>2017-12-29T10:57:26Z</time>
      </trkpt>
      <trkpt lat="46.17747" lon="3.42611">
        <ele>356.96</ele>
        <time>2017-12-29T10:57:32Z</time>
      </trkpt>
      <trkpt lat="46.17731" lon="3.42597">
        <ele>359.27</ele>
        <time>2017-12-29T10:57:39Z</time>
      </trkpt>
      <trkpt lat="46.17714" lon="3.42588">
        <ele>357.48</ele>
        <time>2017-12-29T10:57:46Z</time>
      </trkpt>
      <trkpt lat="46.17695" lon="3.42575">
        <ele>357.63</ele>
        <time>2017-12-29T10:57:53Z</time>
      </trkpt>
      <trkpt lat="46.17676" lon="3.4256">
        <ele>355.76</ele>
        <time>2017-12-29T10:58:00Z</time>
      </trkpt>
      <trkpt lat="46.17658" lon="3.4255">
        <ele>351.58</ele>
        <time>2017-12-29T10:58:06Z</time>
      </trkpt>
      <trkpt lat="46.17642" lon="3.42532">
        <ele>347.9</ele>
        <time>2017-12-29T10:58:12Z</time>
      </trkpt>
      <trkpt lat="46.17626" lon="3.42515">
        <ele>345.37</ele>
        <time>2017-12-29T10:58:18Z</time>
      </trkpt>
      <trkpt lat="46.17606" lon="3.42504">
        <ele>343.86</ele>
        <time>2017-12-29T10:58:24Z</time>
      </trkpt>
      <trkpt lat="46.17589" lon="3.42494">
        <ele>341.23</ele>
        <time>2017-12-29T10:58:31Z</time>
      </trkpt>
      <trkpt lat="46.17569" lon="3.42501">
        <ele>339.55</ele>
        <time>2017-12-29T10:58:38Z</time>
      </trkpt>
      <trkpt lat="46.17555" lon="3.42521">
        <ele>335.88</ele>
        <time>2017-12-29T10:58:45Z</time>
      </trkpt>
      <trkpt lat="46.17542" lon="3.42544">
        <ele>334.56</ele>
        <time>2017-12-29T10:58:52Z</time>
      </trkpt>
      <trkpt lat="46.17534" lon="3.42568">
        <ele>330.27</ele>
        <time>2017-12-29T10:58:58Z</time>
      </trkpt>
      <trkpt lat="46.17526" lon="3.42593">
        <ele>327.86</ele>
        <time>2017-12-29T10:59:04Z</time>
      </trkpt>
      <trkpt lat="46.17517" lon="3.4262">
        <ele>324.86</ele>
        <time>2017-12-29T10:59:11Z</time>
      </trkpt>
      <trkpt lat="46.17507" lon="3.42645">
        <ele>321.67</ele>
        <time>2017-12-29T10:59:18Z</time>
      </trkpt>
      <trkpt lat="46.17495" lon="3.42668">
        <ele>318.91</ele>
        <time>2017-12-29T10:59:25Z</time>
      </trkpt>
      <trkpt lat="46.17481" lon="3.42688">
        <ele>316.94</ele>
        <time>2017-12-29T10:59:32Z</time>
      </trkpt>
      <trkpt lat="46.17471" lon="3.4271">
        <ele>315.35</ele>
        <time>2017-12-29T10:59:38Z</time>
      </trkpt>
      <trkpt lat="46.17463" lon="3.42734">
        <ele>312.25</ele>
        <time>2017-12-29T10:59:44Z</time>
      </trkpt>
      <trkpt lat="46.17454" lon="3.42759">
        <ele>308.58</ele>
        <time>2017-12-29T10:59:51Z</time>
      </trkpt>
      <trkpt lat="46.17461" lon="3.42784">
        <ele>307.55</ele>
        <time>2017-12-29T10:59:58Z</time>
      </trkpt>
      <trkpt lat="46.17476" lon="3.428">
        <ele>308.46</ele>
        <time>2017-12-29T11:00:06Z</time>
      </trkpt>
      <trkpt lat="46.17491" lon="3.42821">
        <ele>309.13</ele>
        <time>2017-12-29T11:00:15Z</time>
      </trkpt>
      <trkpt lat="46.17508" lon="3.42835">
        <ele>307.85</ele>
        <time>2017-12-29T11:00:21Z</time>
      </trkpt>
      <trkpt lat="46.17524" lon="3.42849">
        <ele>306.85</ele>
        <time>2017-12-29T11:00:28Z</time>
      </trkpt>
      <trkpt lat="46.17541" lon="3.42861">
        <ele>306.58</ele>
        <time>2017-12-29T11:00:34Z</time>
      </trkpt>
      <trkpt lat="46.17557" lon="3.42875">
        <ele>312.23</ele>
        <time>2017-12-29T11:00:44Z</time>
      </trkpt>
      <trkpt lat="46.17575" lon="3.42886">
        <ele>313.28</ele>
        <time>2017-12-29T11:00:50Z</time>
      </trkpt>
      <trkpt lat="46.17593" lon="3.42899">
        <ele>313.34</ele>
        <time>2017-12-29T11:00:57Z</time>
      </trkpt>
      <trkpt lat="46.17612" lon="3.42905">
        <ele>315.33</ele>
        <time>2017-12-29T11:01:04Z</time>
      </trkpt>
      <trkpt lat="46.17631" lon="3.42913">
        <ele>319.19</ele>
        <time>2017-12-29T11:01:12Z</time>
      </trkpt>
      <trkpt lat="46.17648" lon="3.42926">
        <ele>320.32</ele>
        <time>2017-12-29T11:01:19Z</time>
      </trkpt>
      <trkpt lat="46.17664" lon="3.42943">
        <ele>321.46</ele>
        <time>2017-12-29T11:01:26Z</time>
      </trkpt>
      <trkpt lat="46.17679" lon="3.42957">
        <ele>321.49</ele>
        <time>2017-12-29T11:01:32Z</time>
      </trkpt>
      <trkpt lat="46.17693" lon="3.42978">
        <ele>323.52</ele>
        <time>2017-12-29T11:01:40Z</time>
      </trkpt>
      <trkpt lat="46.17706" lon="3.42997">
        <ele>323.34</ele>
        <time>2017-12-29T11:01:46Z</time>
      </trkpt>
      <trkpt lat="46.17722" lon="3.43017">
        <ele>325.43</ele>
        <time>2017-12-29T11:01:54Z</time>
      </trkpt>
      <trkpt lat="46.17737" lon="3.43032">
        <ele>324.62</ele>
        <time>2017-12-29T11:02:01Z</time>
      </trkpt>
      <trkpt lat="46.17731" lon="3.43058">
        <ele>325.53</ele>
        <time>2017-12-29T11:02:10Z</time>
      </trkpt>
      <trkpt lat="46.17722" lon="3.43081">
        <ele>325.64</ele>
        <time>2017-12-29T11:02:17Z</time>
      </trkpt>
      <trkpt lat="46.17712" lon="3.43105">
        <ele>325.25</ele>
        <time>2017-12-29T11:02:24Z</time>
      </trkpt>
      <trkpt lat="46.17703" lon="3.43129">
        <ele>325.24</ele>
        <time>2017-12-29T11:02:30Z</time>
      </trkpt>
      <trkpt lat="46.17693" lon="3.43156">
        <ele>323.58</ele>
        <time>2017-12-29T11:02:37Z</time>
      </trkpt>
      <trkpt lat="46.17684" lon="3.43183">
        <ele>321.56</ele>
        <time>2017-12-29T11:02:44Z</time>
      </trkpt>
      <trkpt lat="46.17673" lon="3.43207">
        <ele>319.89</ele>
        <time>2017-12-29T11:02:51Z</time>
      </trkpt>
      <trkpt lat="46.17661" lon="3.43185">
        <ele>321.27</ele>
        <time>2017-12-29T11:02:58Z</time>
      </trkpt>
      <trkpt lat="46.17645" lon="3.4317">
        <ele>318.91</ele>
        <time>2017-12-29T11:03:03Z</time>
      </trkpt>
      <trkpt lat="46.17629" lon="3.43156">
        <ele>315.94</ele>
        <time>2017-12-29T11:03:10Z</time>
      </trkpt>
      <trkpt lat="46.17612" lon="3.43146">
        <ele>312.68</ele>
        <time>2017-12-29T11:03:15Z</time>
      </trkpt>
      <trkpt lat="46.17594" lon="3.43132">
        <ele>311.28</ele>
        <time>2017-12-29T11:03:22Z</time>
      </trkpt>
      <trkpt lat="46.17578" lon="3.43115">
        <ele>313.22</ele>
        <time>2017-12-29T11:03:29Z</time>
      </trkpt>
      <trkpt lat="46.17563" lon="3.43098">
        <ele>314.25</ele>
        <time>2017-12-29T11:03:36Z</time>
      </trkpt>
      <trkpt lat="46.17545" lon="3.4308">
        <ele>313.85</ele>
        <time>2017-12-29T11:03:44Z</time>
      </trkpt>
      <trkpt lat="46.1753" lon="3.43059">
        <ele>310.65</ele>
        <time>2017-12-29T11:03:50Z</time>
      </trkpt>
      <trkpt lat="46.17514" lon="3.43045">
        <ele>309.56</ele>
        <time>2017-12-29T11:03:57Z</time>
      </trkpt>
      <trkpt lat="46.17498" lon="3.43031">
        <ele>306.56</ele>
        <time>2017-12-29T11:04:04Z</time>
      </trkpt>
      <trkpt lat="46.17482" lon="3.43015">
        <ele>305.55</ele>
        <time>2017-12-29T11:04:10Z</time>
      </trkpt>
      <trkpt lat="46.17466" lon="3.42998">
        <ele>310.22</ele>
        <time>2017-12-29T11:04:18Z</time>
      </trkpt>
      <trkpt lat="46.1745" lon="3.42983">
        <ele>312.47</ele>
        <time>2017-12-29T11:04:25Z</time>
      </trkpt>
      <trkpt lat="46.17431" lon="3.42974">
        <ele>308.19</ele>
        <time>2017-12-29T11:04:31Z</time>
      </trkpt>
      <trkpt lat="46.17413" lon="3.4296">
        <ele>303.57</ele>
        <time>2017-12-29T11:04:38Z</time>
      </trkpt>
      <trkpt lat="46.17397" lon="3.42946">
        <ele>301.59</ele>
        <time>2017-12-29T11:04:43Z</time>
      </trkpt>
      <trkpt lat="46.17382" lon="3.4293">
        <ele>301.13</ele>
        <time>2017-12-29T11:04:48Z</time>
      </trkpt>
      <trkpt lat="46.17362" lon="3.42922">
        <ele>299.35</ele>
        <time>2017-12-29T11:04:54Z</time>
      </trkpt>
      <trkpt lat="46.17341" lon="3.42918">
        <ele>299.66</ele>
        <time>2017-12-29T11:05:00Z</time>
      </trkpt>
      <trkpt lat="46.17323" lon="3.42911">
        <ele>296.43</ele>
        <time>2017-12-29T11:05:06Z</time>
      </trkpt>
      <trkpt lat="46.17306" lon="3.42896">
        <ele>303.13</ele>
        <time>2017-12-29T11:05:14Z</time>
      </trkpt>
      <trkpt lat="46.17291" lon="3.42881">
        <ele>302.16</ele>
        <time>2017-12-29T11:05:20Z</time>
      </trkpt>
      <trkpt lat="46.17271" lon="3.42878">
        <ele>304.82</ele>
        <time>2017-12-29T11:05:26Z</time>
      </trkpt>
      <trkpt lat="46.17252" lon="3.42877">
        <ele>305.57</ele>
        <time>2017-12-29T11:05:32Z</time>
      </trkpt>
      <trkpt lat="46.17233" lon="3.42879">
        <ele>301.68</ele>
        <time>2017-12-29T11:05:38Z</time>
      </trkpt>
      <trkpt lat="46.17208" lon="3.4288">
        <ele>299.26</ele>
        <time>2017-12-29T11:05:44Z</time>
      </trkpt>
      <trkpt lat="46.1719" lon="3.42883">
        <ele>292.22</ele>
        <time>2017-12-29T11:05:49Z</time>
      </trkpt>
      <trkpt lat="46.1717" lon="3.42887">
        <ele>290.02</ele>
        <time>2017-12-29T11:05:55Z</time>
      </trkpt>
      <trkpt lat="46.17151" lon="3.42892">
        <ele>295.92</ele>
        <time>2017-12-29T11:06:06Z</time>
      </trkpt>
      <trkpt lat="46.17131" lon="3.42886">
        <ele>296.35</ele>
        <time>2017-12-29T11:06:13Z</time>
      </trkpt>
      <trkpt lat="46.1711" lon="3.4288">
        <ele>302.12</ele>
        <time>2017-12-29T11:06:20Z</time>
      </trkpt>
      <trkpt lat="46.17091" lon="3.42876">
        <ele>303.03</ele>
        <time>2017-12-29T11:06:27Z</time>
      </trkpt>
      <trkpt lat="46.17074" lon="3.42869">
        <ele>302.82</ele>
        <time>2017-12-29T11:06:33Z</time>
      </trkpt>
      <trkpt lat="46.17053" lon="3.42867">
        <ele>305.64</ele>
        <time>2017-12-29T11:06:39Z</time>
      </trkpt>
      <trkpt lat="46.17032" lon="3.42873">
        <ele>307.46</ele>
        <time>2017-12-29T11:06:45Z</time>
      </trkpt>
      <trkpt lat="46.17013" lon="3.42883">
        <ele>308.53</ele>
        <time>2017-12-29T11:06:52Z</time>
      </trkpt>
      <trkpt lat="46.16998" lon="3.42903">
        <ele>309.46</ele>
        <time>2017-12-29T11:06:59Z</time>
      </trkpt>
      <trkpt lat="46.17003" lon="3.42932">
        <ele>308.35</ele>
        <time>2017-12-29T11:07:05Z</time>
      </trkpt>
      <trkpt lat="46.17003" lon="3.4296">
        <ele>306.05</ele>
        <time>2017-12-29T11:07:12Z</time>
      </trkpt>
      <trkpt lat="46.17008" lon="3.42987">
        <ele>305.44</ele>
        <time>2017-12-29T11:07:20Z</time>
      </trkpt>
      <trkpt lat="46.17014" lon="3.43012">
        <ele>306.46</ele>
        <time>2017-12-29T11:07:26Z</time>
      </trkpt>
      <trkpt lat="46.17021" lon="3.43039">
        <ele>305.8</ele>
        <time>2017-12-29T11:07:34Z</time>
      </trkpt>
      <trkpt lat="46.17028" lon="3.43064">
        <ele>313</ele>
        <time>2017-12-29T11:07:42Z</time>
      </trkpt>
      <trkpt lat="46.17039" lon="3.43085">
        <ele>315.76</ele>
        <time>2017-12-29T11:07:53Z</time>
      </trkpt>
      <trkpt lat="46.17048" lon="3.43108">
        <ele>313.55</ele>
        <time>2017-12-29T11:08:06Z</time>
      </trkpt>
    </trkseg>
  </trk>
</gpx>